<?xml version="1.0" encoding="UTF-8" standalone="no" ?>
<gpx xmlns="http://www.topografix.com/GPX/1/1" xmlns:xsi="http://www.w3.org/2001/XMLSchema-instance" xsi:schemaLocation="http://www.topografix.com/GPX/1/1 http://www.topografix.com/GPX/1/1/gpx.xsd" version="1.1" creator="VisuGPX - https://www.visugpx.com">
  <metadata>
    <name>R2a-Les-Coteaux-de-l-Autil</name>
  </metadata>
  <trk>
    <name><![CDATA[13811768-R2a-Les-Coteaux-de-l-Autil]]></name>
    <trkseg>
      <trkpt lat="49.04948" lon="2.03415">
        <ele>97</ele>
        <time>2021-10-11T11:48:30Z</time>
      </trkpt>
      <trkpt lat="49.04939" lon="2.03421">
        <ele>97</ele>
        <time>2021-10-11T11:48:43Z</time>
      </trkpt>
      <trkpt lat="49.04931" lon="2.0342">
        <ele>97</ele>
        <time>2021-10-11T11:48:54Z</time>
      </trkpt>
      <trkpt lat="49.04908" lon="2.03412">
        <ele>97</ele>
        <time>2021-10-11T11:49:25Z</time>
      </trkpt>
      <trkpt lat="49.04904" lon="2.03406">
        <ele>97</ele>
        <time>2021-10-11T11:49:33Z</time>
      </trkpt>
      <trkpt lat="49.04867" lon="2.03404">
        <ele>98</ele>
        <time>2021-10-11T11:50:22Z</time>
      </trkpt>
      <trkpt lat="49.04837" lon="2.03395">
        <ele>98</ele>
        <time>2021-10-11T11:51:03Z</time>
      </trkpt>
      <trkpt lat="49.04815" lon="2.03392">
        <ele>99</ele>
        <time>2021-10-11T11:51:32Z</time>
      </trkpt>
      <trkpt lat="49.04801" lon="2.03383">
        <ele>100</ele>
        <time>2021-10-11T11:51:53Z</time>
      </trkpt>
      <trkpt lat="49.04795" lon="2.03382">
        <ele>100</ele>
        <time>2021-10-11T11:52:01Z</time>
      </trkpt>
      <trkpt lat="49.0478" lon="2.03385">
        <ele>101</ele>
        <time>2021-10-11T11:52:21Z</time>
      </trkpt>
      <trkpt lat="49.04772" lon="2.03381">
        <ele>101</ele>
        <time>2021-10-11T11:52:32Z</time>
      </trkpt>
      <trkpt lat="49.04739" lon="2.03373">
        <ele>103</ele>
        <time>2021-10-11T11:53:17Z</time>
      </trkpt>
      <trkpt lat="49.047" lon="2.0337">
        <ele>103</ele>
        <time>2021-10-11T11:54:09Z</time>
      </trkpt>
      <trkpt lat="49.0469" lon="2.03367">
        <ele>104</ele>
        <time>2021-10-11T11:54:23Z</time>
      </trkpt>
      <trkpt lat="49.04686" lon="2.03363">
        <ele>104</ele>
        <time>2021-10-11T11:54:29Z</time>
      </trkpt>
      <trkpt lat="49.04659" lon="2.03358">
        <ele>105</ele>
        <time>2021-10-11T11:55:05Z</time>
      </trkpt>
      <trkpt lat="49.04624" lon="2.03346">
        <ele>106</ele>
        <time>2021-10-11T11:55:53Z</time>
      </trkpt>
      <trkpt lat="49.04609" lon="2.03349">
        <ele>107</ele>
        <time>2021-10-11T11:56:13Z</time>
      </trkpt>
      <trkpt lat="49.04601" lon="2.03338">
        <ele>107</ele>
        <time>2021-10-11T11:56:28Z</time>
      </trkpt>
      <trkpt lat="49.04597" lon="2.0334">
        <ele>107</ele>
        <time>2021-10-11T11:56:33Z</time>
      </trkpt>
      <trkpt lat="49.04591" lon="2.03354">
        <ele>107</ele>
        <time>2021-10-11T11:56:48Z</time>
      </trkpt>
      <trkpt lat="49.04572" lon="2.03378">
        <ele>108</ele>
        <time>2021-10-11T11:57:21Z</time>
      </trkpt>
      <trkpt lat="49.04551" lon="2.03404">
        <ele>108</ele>
        <time>2021-10-11T11:57:57Z</time>
      </trkpt>
      <trkpt lat="49.0455" lon="2.03402">
        <ele>108</ele>
        <time>2021-10-11T11:57:59Z</time>
      </trkpt>
      <trkpt lat="49.0454" lon="2.03414">
        <ele>108</ele>
        <time>2021-10-11T11:58:16Z</time>
      </trkpt>
      <trkpt lat="49.04565" lon="2.03389">
        <ele>108</ele>
        <time>2021-10-11T11:58:56Z</time>
      </trkpt>
      <trkpt lat="49.0458" lon="2.03369">
        <ele>108</ele>
        <time>2021-10-11T11:59:23Z</time>
      </trkpt>
      <trkpt lat="49.04582" lon="2.0336">
        <ele>108</ele>
        <time>2021-10-11T11:59:31Z</time>
      </trkpt>
      <trkpt lat="49.04583" lon="2.03309">
        <ele>107</ele>
        <time>2021-10-11T12:00:15Z</time>
      </trkpt>
      <trkpt lat="49.04581" lon="2.033">
        <ele>107</ele>
        <time>2021-10-11T12:00:24Z</time>
      </trkpt>
      <trkpt lat="49.04554" lon="2.03245">
        <ele>106</ele>
        <time>2021-10-11T12:01:24Z</time>
      </trkpt>
      <trkpt lat="49.04553" lon="2.03232">
        <ele>106</ele>
        <time>2021-10-11T12:01:35Z</time>
      </trkpt>
      <trkpt lat="49.04544" lon="2.03208">
        <ele>106</ele>
        <time>2021-10-11T12:02:00Z</time>
      </trkpt>
      <trkpt lat="49.04534" lon="2.03166">
        <ele>106</ele>
        <time>2021-10-11T12:02:39Z</time>
      </trkpt>
      <trkpt lat="49.04526" lon="2.03149">
        <ele>106</ele>
        <time>2021-10-11T12:02:57Z</time>
      </trkpt>
      <trkpt lat="49.04522" lon="2.03122">
        <ele>106</ele>
        <time>2021-10-11T12:03:21Z</time>
      </trkpt>
      <trkpt lat="49.04511" lon="2.03098">
        <ele>106</ele>
        <time>2021-10-11T12:03:47Z</time>
      </trkpt>
      <trkpt lat="49.04511" lon="2.03093">
        <ele>106</ele>
        <time>2021-10-11T12:03:51Z</time>
      </trkpt>
      <trkpt lat="49.04519" lon="2.03079">
        <ele>106</ele>
        <time>2021-10-11T12:04:07Z</time>
      </trkpt>
      <trkpt lat="49.04531" lon="2.03072">
        <ele>106</ele>
        <time>2021-10-11T12:04:25Z</time>
      </trkpt>
      <trkpt lat="49.04559" lon="2.03049">
        <ele>106</ele>
        <time>2021-10-11T12:05:07Z</time>
      </trkpt>
      <trkpt lat="49.04632" lon="2.02976">
        <ele>105</ele>
        <time>2021-10-11T12:07:03Z</time>
      </trkpt>
      <trkpt lat="49.04646" lon="2.02949">
        <ele>105</ele>
        <time>2021-10-11T12:07:34Z</time>
      </trkpt>
      <trkpt lat="49.04649" lon="2.02941">
        <ele>105</ele>
        <time>2021-10-11T12:07:42Z</time>
      </trkpt>
      <trkpt lat="49.04648" lon="2.02934">
        <ele>105</ele>
        <time>2021-10-11T12:07:48Z</time>
      </trkpt>
      <trkpt lat="49.04623" lon="2.02878">
        <ele>106</ele>
        <time>2021-10-11T12:08:47Z</time>
      </trkpt>
      <trkpt lat="49.04614" lon="2.02865">
        <ele>106</ele>
        <time>2021-10-11T12:09:04Z</time>
      </trkpt>
      <trkpt lat="49.04574" lon="2.02784">
        <ele>106</ele>
        <time>2021-10-11T12:10:32Z</time>
      </trkpt>
      <trkpt lat="49.04561" lon="2.0278">
        <ele>106</ele>
        <time>2021-10-11T12:10:50Z</time>
      </trkpt>
      <trkpt lat="49.04551" lon="2.02799">
        <ele>105</ele>
        <time>2021-10-11T12:11:11Z</time>
      </trkpt>
      <trkpt lat="49.04546" lon="2.028">
        <ele>105</ele>
        <time>2021-10-11T12:11:18Z</time>
      </trkpt>
      <trkpt lat="49.0455" lon="2.02794">
        <ele>105</ele>
        <time>2021-10-11T12:11:26Z</time>
      </trkpt>
      <trkpt lat="49.04552" lon="2.02776">
        <ele>105</ele>
        <time>2021-10-11T12:11:42Z</time>
      </trkpt>
      <trkpt lat="49.0455" lon="2.02767">
        <ele>105</ele>
        <time>2021-10-11T12:11:50Z</time>
      </trkpt>
      <trkpt lat="49.04504" lon="2.02666">
        <ele>104</ele>
        <time>2021-10-11T12:13:37Z</time>
      </trkpt>
      <trkpt lat="49.04501" lon="2.02671">
        <ele>104</ele>
        <time>2021-10-11T12:13:43Z</time>
      </trkpt>
      <trkpt lat="49.04495" lon="2.02674">
        <ele>104</ele>
        <time>2021-10-11T12:13:52Z</time>
      </trkpt>
      <trkpt lat="49.04479" lon="2.02671">
        <ele>103</ele>
        <time>2021-10-11T12:14:13Z</time>
      </trkpt>
      <trkpt lat="49.04469" lon="2.02661">
        <ele>102</ele>
        <time>2021-10-11T12:14:29Z</time>
      </trkpt>
      <trkpt lat="49.04459" lon="2.02658">
        <ele>102</ele>
        <time>2021-10-11T12:14:43Z</time>
      </trkpt>
      <trkpt lat="49.04454" lon="2.02652">
        <ele>102</ele>
        <time>2021-10-11T12:14:51Z</time>
      </trkpt>
      <trkpt lat="49.04433" lon="2.02622">
        <ele>101</ele>
        <time>2021-10-11T12:15:30Z</time>
      </trkpt>
      <trkpt lat="49.04426" lon="2.02607">
        <ele>100</ele>
        <time>2021-10-11T12:15:46Z</time>
      </trkpt>
      <trkpt lat="49.04412" lon="2.02589">
        <ele>100</ele>
        <time>2021-10-11T12:16:10Z</time>
      </trkpt>
      <trkpt lat="49.04285" lon="2.02398">
        <ele>95</ele>
        <time>2021-10-11T12:20:08Z</time>
      </trkpt>
      <trkpt lat="49.04284" lon="2.02392">
        <ele>95</ele>
        <time>2021-10-11T12:20:14Z</time>
      </trkpt>
      <trkpt lat="49.04306" lon="2.02364">
        <ele>97</ele>
        <time>2021-10-11T12:20:52Z</time>
      </trkpt>
      <trkpt lat="49.0432" lon="2.0234">
        <ele>98</ele>
        <time>2021-10-11T12:21:20Z</time>
      </trkpt>
      <trkpt lat="49.04322" lon="2.02331">
        <ele>98</ele>
        <time>2021-10-11T12:21:28Z</time>
      </trkpt>
      <trkpt lat="49.04333" lon="2.0231">
        <ele>99</ele>
        <time>2021-10-11T12:21:52Z</time>
      </trkpt>
      <trkpt lat="49.04357" lon="2.02283">
        <ele>99</ele>
        <time>2021-10-11T12:22:32Z</time>
      </trkpt>
      <trkpt lat="49.04384" lon="2.02239">
        <ele>100</ele>
        <time>2021-10-11T12:23:24Z</time>
      </trkpt>
      <trkpt lat="49.04428" lon="2.02149">
        <ele>101</ele>
        <time>2021-10-11T12:25:03Z</time>
      </trkpt>
      <trkpt lat="49.04434" lon="2.02145">
        <ele>101</ele>
        <time>2021-10-11T12:25:11Z</time>
      </trkpt>
      <trkpt lat="49.04441" lon="2.02145">
        <ele>102</ele>
        <time>2021-10-11T12:25:21Z</time>
      </trkpt>
      <trkpt lat="49.04449" lon="2.02113">
        <ele>102</ele>
        <time>2021-10-11T12:25:51Z</time>
      </trkpt>
      <trkpt lat="49.04498" lon="2.0204">
        <ele>105</ele>
        <time>2021-10-11T12:27:22Z</time>
      </trkpt>
      <trkpt lat="49.04504" lon="2.02034">
        <ele>106</ele>
        <time>2021-10-11T12:27:32Z</time>
      </trkpt>
      <trkpt lat="49.04515" lon="2.02033">
        <ele>106</ele>
        <time>2021-10-11T12:27:46Z</time>
      </trkpt>
      <trkpt lat="49.04528" lon="2.02011">
        <ele>106</ele>
        <time>2021-10-11T12:28:12Z</time>
      </trkpt>
      <trkpt lat="49.04531" lon="2.02002">
        <ele>106</ele>
        <time>2021-10-11T12:28:21Z</time>
      </trkpt>
      <trkpt lat="49.04531" lon="2.01986">
        <ele>106</ele>
        <time>2021-10-11T12:28:35Z</time>
      </trkpt>
      <trkpt lat="49.0455" lon="2.01953">
        <ele>106</ele>
        <time>2021-10-11T12:29:13Z</time>
      </trkpt>
      <trkpt lat="49.04563" lon="2.01942">
        <ele>107</ele>
        <time>2021-10-11T12:29:33Z</time>
      </trkpt>
      <trkpt lat="49.0457" lon="2.01928">
        <ele>107</ele>
        <time>2021-10-11T12:29:49Z</time>
      </trkpt>
      <trkpt lat="49.04568" lon="2.01925">
        <ele>107</ele>
        <time>2021-10-11T12:29:52Z</time>
      </trkpt>
      <trkpt lat="49.04571" lon="2.01881">
        <ele>107</ele>
        <time>2021-10-11T12:30:31Z</time>
      </trkpt>
      <trkpt lat="49.0457" lon="2.01853">
        <ele>107</ele>
        <time>2021-10-11T12:30:56Z</time>
      </trkpt>
      <trkpt lat="49.04576" lon="2.01854">
        <ele>107</ele>
        <time>2021-10-11T12:31:04Z</time>
      </trkpt>
      <trkpt lat="49.04581" lon="2.0185">
        <ele>107</ele>
        <time>2021-10-11T12:31:11Z</time>
      </trkpt>
      <trkpt lat="49.04582" lon="2.01809">
        <ele>107</ele>
        <time>2021-10-11T12:31:47Z</time>
      </trkpt>
      <trkpt lat="49.0458" lon="2.01803">
        <ele>107</ele>
        <time>2021-10-11T12:31:53Z</time>
      </trkpt>
      <trkpt lat="49.04594" lon="2.01772">
        <ele>108</ele>
        <time>2021-10-11T12:32:26Z</time>
      </trkpt>
      <trkpt lat="49.04601" lon="2.01745">
        <ele>108</ele>
        <time>2021-10-11T12:32:51Z</time>
      </trkpt>
      <trkpt lat="49.04613" lon="2.01722">
        <ele>108</ele>
        <time>2021-10-11T12:33:17Z</time>
      </trkpt>
      <trkpt lat="49.04623" lon="2.0171">
        <ele>108</ele>
        <time>2021-10-11T12:33:34Z</time>
      </trkpt>
      <trkpt lat="49.04625" lon="2.01704">
        <ele>108</ele>
        <time>2021-10-11T12:33:40Z</time>
      </trkpt>
      <trkpt lat="49.04647" lon="2.01683">
        <ele>108</ele>
        <time>2021-10-11T12:34:15Z</time>
      </trkpt>
      <trkpt lat="49.04656" lon="2.01668">
        <ele>108</ele>
        <time>2021-10-11T12:34:32Z</time>
      </trkpt>
      <trkpt lat="49.04661" lon="2.01651">
        <ele>108</ele>
        <time>2021-10-11T12:34:49Z</time>
      </trkpt>
      <trkpt lat="49.04673" lon="2.0163">
        <ele>107</ele>
        <time>2021-10-11T12:35:13Z</time>
      </trkpt>
      <trkpt lat="49.04672" lon="2.01622">
        <ele>107</ele>
        <time>2021-10-11T12:35:20Z</time>
      </trkpt>
      <trkpt lat="49.04658" lon="2.0161">
        <ele>107</ele>
        <time>2021-10-11T12:35:42Z</time>
      </trkpt>
      <trkpt lat="49.04628" lon="2.01563">
        <ele>106</ele>
        <time>2021-10-11T12:36:39Z</time>
      </trkpt>
      <trkpt lat="49.0468" lon="2.01487">
        <ele>106</ele>
        <time>2021-10-11T12:38:15Z</time>
      </trkpt>
      <trkpt lat="49.04695" lon="2.01459">
        <ele>107</ele>
        <time>2021-10-11T12:38:47Z</time>
      </trkpt>
      <trkpt lat="49.04712" lon="2.01435">
        <ele>107</ele>
        <time>2021-10-11T12:39:18Z</time>
      </trkpt>
      <trkpt lat="49.04714" lon="2.01427">
        <ele>107</ele>
        <time>2021-10-11T12:39:25Z</time>
      </trkpt>
      <trkpt lat="49.0471" lon="2.01392">
        <ele>108</ele>
        <time>2021-10-11T12:39:56Z</time>
      </trkpt>
      <trkpt lat="49.04707" lon="2.01383">
        <ele>108</ele>
        <time>2021-10-11T12:40:05Z</time>
      </trkpt>
      <trkpt lat="49.04695" lon="2.0137">
        <ele>108</ele>
        <time>2021-10-11T12:40:25Z</time>
      </trkpt>
      <trkpt lat="49.04682" lon="2.01345">
        <ele>108</ele>
        <time>2021-10-11T12:40:53Z</time>
      </trkpt>
      <trkpt lat="49.04663" lon="2.01319">
        <ele>108</ele>
        <time>2021-10-11T12:41:27Z</time>
      </trkpt>
      <trkpt lat="49.04669" lon="2.01304">
        <ele>108</ele>
        <time>2021-10-11T12:41:42Z</time>
      </trkpt>
      <trkpt lat="49.04657" lon="2.01279">
        <ele>108</ele>
        <time>2021-10-11T12:42:09Z</time>
      </trkpt>
      <trkpt lat="49.04637" lon="2.01252">
        <ele>108</ele>
        <time>2021-10-11T12:42:45Z</time>
      </trkpt>
      <trkpt lat="49.04629" lon="2.01214">
        <ele>109</ele>
        <time>2021-10-11T12:43:20Z</time>
      </trkpt>
      <trkpt lat="49.0463" lon="2.01204">
        <ele>109</ele>
        <time>2021-10-11T12:43:28Z</time>
      </trkpt>
      <trkpt lat="49.04636" lon="2.01189">
        <ele>109</ele>
        <time>2021-10-11T12:43:44Z</time>
      </trkpt>
      <trkpt lat="49.04647" lon="2.01146">
        <ele>110</ele>
        <time>2021-10-11T12:44:24Z</time>
      </trkpt>
      <trkpt lat="49.0465" lon="2.0112">
        <ele>110</ele>
        <time>2021-10-11T12:44:47Z</time>
      </trkpt>
      <trkpt lat="49.04657" lon="2.01095">
        <ele>111</ele>
        <time>2021-10-11T12:45:11Z</time>
      </trkpt>
      <trkpt lat="49.04664" lon="2.0108">
        <ele>111</ele>
        <time>2021-10-11T12:45:27Z</time>
      </trkpt>
      <trkpt lat="49.04699" lon="2.01024">
        <ele>114</ele>
        <time>2021-10-11T12:46:35Z</time>
      </trkpt>
      <trkpt lat="49.04705" lon="2.01023">
        <ele>114</ele>
        <time>2021-10-11T12:46:43Z</time>
      </trkpt>
      <trkpt lat="49.04727" lon="2.00989">
        <ele>117</ele>
        <time>2021-10-11T12:47:25Z</time>
      </trkpt>
      <trkpt lat="49.04734" lon="2.00987">
        <ele>117</ele>
        <time>2021-10-11T12:47:34Z</time>
      </trkpt>
      <trkpt lat="49.04739" lon="2.0098">
        <ele>117</ele>
        <time>2021-10-11T12:47:43Z</time>
      </trkpt>
      <trkpt lat="49.04744" lon="2.00955">
        <ele>117</ele>
        <time>2021-10-11T12:48:06Z</time>
      </trkpt>
      <trkpt lat="49.04748" lon="2.00947">
        <ele>117</ele>
        <time>2021-10-11T12:48:15Z</time>
      </trkpt>
      <trkpt lat="49.04748" lon="2.00905">
        <ele>115</ele>
        <time>2021-10-11T12:48:52Z</time>
      </trkpt>
      <trkpt lat="49.04764" lon="2.00842">
        <ele>112</ele>
        <time>2021-10-11T12:49:51Z</time>
      </trkpt>
      <trkpt lat="49.04764" lon="2.00835">
        <ele>112</ele>
        <time>2021-10-11T12:49:57Z</time>
      </trkpt>
      <trkpt lat="49.04753" lon="2.00808">
        <ele>112</ele>
        <time>2021-10-11T12:50:25Z</time>
      </trkpt>
      <trkpt lat="49.04754" lon="2.00779">
        <ele>111</ele>
        <time>2021-10-11T12:50:50Z</time>
      </trkpt>
      <trkpt lat="49.04749" lon="2.00763">
        <ele>111</ele>
        <time>2021-10-11T12:51:06Z</time>
      </trkpt>
      <trkpt lat="49.04664" lon="2.00567">
        <ele>109</ele>
        <time>2021-10-11T12:54:31Z</time>
      </trkpt>
      <trkpt lat="49.04616" lon="2.00465">
        <ele>111</ele>
        <time>2021-10-11T12:56:21Z</time>
      </trkpt>
      <trkpt lat="49.04585" lon="2.00392">
        <ele>112</ele>
        <time>2021-10-11T12:57:37Z</time>
      </trkpt>
      <trkpt lat="49.04576" lon="2.00377">
        <ele>112</ele>
        <time>2021-10-11T12:57:55Z</time>
      </trkpt>
      <trkpt lat="49.04571" lon="2.00382">
        <ele>112</ele>
        <time>2021-10-11T12:58:03Z</time>
      </trkpt>
      <trkpt lat="49.04568" lon="2.00391">
        <ele>112</ele>
        <time>2021-10-11T12:58:12Z</time>
      </trkpt>
      <trkpt lat="49.04554" lon="2.00404">
        <ele>112</ele>
        <time>2021-10-11T12:58:34Z</time>
      </trkpt>
      <trkpt lat="49.04546" lon="2.00395">
        <ele>112</ele>
        <time>2021-10-11T12:58:47Z</time>
      </trkpt>
      <trkpt lat="49.04524" lon="2.00386">
        <ele>112</ele>
        <time>2021-10-11T12:59:17Z</time>
      </trkpt>
      <trkpt lat="49.0452" lon="2.00416">
        <ele>112</ele>
        <time>2021-10-11T12:59:44Z</time>
      </trkpt>
      <trkpt lat="49.04505" lon="2.0042">
        <ele>112</ele>
        <time>2021-10-11T13:00:04Z</time>
      </trkpt>
      <trkpt lat="49.04495" lon="2.00431">
        <ele>112</ele>
        <time>2021-10-11T13:00:21Z</time>
      </trkpt>
      <trkpt lat="49.04494" lon="2.00448">
        <ele>112</ele>
        <time>2021-10-11T13:00:36Z</time>
      </trkpt>
      <trkpt lat="49.04478" lon="2.00544">
        <ele>113</ele>
        <time>2021-10-11T13:02:02Z</time>
      </trkpt>
      <trkpt lat="49.04474" lon="2.00549">
        <ele>113</ele>
        <time>2021-10-11T13:02:09Z</time>
      </trkpt>
      <trkpt lat="49.04456" lon="2.00555">
        <ele>113</ele>
        <time>2021-10-11T13:02:34Z</time>
      </trkpt>
      <trkpt lat="49.04446" lon="2.00544">
        <ele>114</ele>
        <time>2021-10-11T13:02:50Z</time>
      </trkpt>
      <trkpt lat="49.04457" lon="2.00558">
        <ele>113</ele>
        <time>2021-10-11T13:03:09Z</time>
      </trkpt>
      <trkpt lat="49.04477" lon="2.0055">
        <ele>113</ele>
        <time>2021-10-11T13:03:37Z</time>
      </trkpt>
      <trkpt lat="49.04482" lon="2.00532">
        <ele>113</ele>
        <time>2021-10-11T13:03:54Z</time>
      </trkpt>
      <trkpt lat="49.04482" lon="2.00523">
        <ele>113</ele>
        <time>2021-10-11T13:04:02Z</time>
      </trkpt>
      <trkpt lat="49.04469" lon="2.00518">
        <ele>113</ele>
        <time>2021-10-11T13:04:20Z</time>
      </trkpt>
      <trkpt lat="49.04461" lon="2.00506">
        <ele>114</ele>
        <time>2021-10-11T13:04:35Z</time>
      </trkpt>
      <trkpt lat="49.04456" lon="2.00476">
        <ele>114</ele>
        <time>2021-10-11T13:05:02Z</time>
      </trkpt>
      <trkpt lat="49.04437" lon="2.00406">
        <ele>115</ele>
        <time>2021-10-11T13:06:08Z</time>
      </trkpt>
      <trkpt lat="49.04437" lon="2.00383">
        <ele>115</ele>
        <time>2021-10-11T13:06:28Z</time>
      </trkpt>
      <trkpt lat="49.04433" lon="2.00367">
        <ele>114</ele>
        <time>2021-10-11T13:06:43Z</time>
      </trkpt>
      <trkpt lat="49.04421" lon="2.00348">
        <ele>114</ele>
        <time>2021-10-11T13:07:06Z</time>
      </trkpt>
      <trkpt lat="49.04418" lon="2.00355">
        <ele>114</ele>
        <time>2021-10-11T13:07:14Z</time>
      </trkpt>
      <trkpt lat="49.04421" lon="2.00338">
        <ele>114</ele>
        <time>2021-10-11T13:07:29Z</time>
      </trkpt>
      <trkpt lat="49.04416" lon="2.00308">
        <ele>114</ele>
        <time>2021-10-11T13:07:56Z</time>
      </trkpt>
      <trkpt lat="49.04412" lon="2.00288">
        <ele>114</ele>
        <time>2021-10-11T13:08:14Z</time>
      </trkpt>
      <trkpt lat="49.04406" lon="2.00284">
        <ele>114</ele>
        <time>2021-10-11T13:08:23Z</time>
      </trkpt>
      <trkpt lat="49.04411" lon="2.00246">
        <ele>114</ele>
        <time>2021-10-11T13:08:57Z</time>
      </trkpt>
      <trkpt lat="49.04406" lon="2.00238">
        <ele>114</ele>
        <time>2021-10-11T13:09:07Z</time>
      </trkpt>
      <trkpt lat="49.04391" lon="2.00235">
        <ele>114</ele>
        <time>2021-10-11T13:09:27Z</time>
      </trkpt>
      <trkpt lat="49.04366" lon="2.00218">
        <ele>115</ele>
        <time>2021-10-11T13:10:03Z</time>
      </trkpt>
      <trkpt lat="49.04349" lon="2.00211">
        <ele>115</ele>
        <time>2021-10-11T13:10:27Z</time>
      </trkpt>
      <trkpt lat="49.0434" lon="2.00204">
        <ele>115</ele>
        <time>2021-10-11T13:10:40Z</time>
      </trkpt>
      <trkpt lat="49.04334" lon="2.00203">
        <ele>115</ele>
        <time>2021-10-11T13:10:48Z</time>
      </trkpt>
      <trkpt lat="49.04322" lon="2.0022">
        <ele>115</ele>
        <time>2021-10-11T13:11:10Z</time>
      </trkpt>
      <trkpt lat="49.04305" lon="2.00297">
        <ele>116</ele>
        <time>2021-10-11T13:12:21Z</time>
      </trkpt>
      <trkpt lat="49.04301" lon="2.00302">
        <ele>116</ele>
        <time>2021-10-11T13:12:28Z</time>
      </trkpt>
      <trkpt lat="49.04296" lon="2.00303">
        <ele>116</ele>
        <time>2021-10-11T13:12:35Z</time>
      </trkpt>
      <trkpt lat="49.04284" lon="2.00299">
        <ele>116</ele>
        <time>2021-10-11T13:12:51Z</time>
      </trkpt>
      <trkpt lat="49.04278" lon="2.00301">
        <ele>117</ele>
        <time>2021-10-11T13:13:00Z</time>
      </trkpt>
      <trkpt lat="49.04274" lon="2.00308">
        <ele>117</ele>
        <time>2021-10-11T13:13:08Z</time>
      </trkpt>
      <trkpt lat="49.0426" lon="2.00362">
        <ele>118</ele>
        <time>2021-10-11T13:13:59Z</time>
      </trkpt>
      <trkpt lat="49.04237" lon="2.00427">
        <ele>119</ele>
        <time>2021-10-11T13:15:03Z</time>
      </trkpt>
      <trkpt lat="49.04228" lon="2.0046">
        <ele>119</ele>
        <time>2021-10-11T13:15:34Z</time>
      </trkpt>
      <trkpt lat="49.04234" lon="2.00495">
        <ele>119</ele>
        <time>2021-10-11T13:16:06Z</time>
      </trkpt>
      <trkpt lat="49.04231" lon="2.00511">
        <ele>119</ele>
        <time>2021-10-11T13:16:21Z</time>
      </trkpt>
      <trkpt lat="49.04226" lon="2.00516">
        <ele>119</ele>
        <time>2021-10-11T13:16:29Z</time>
      </trkpt>
      <trkpt lat="49.04208" lon="2.00521">
        <ele>119</ele>
        <time>2021-10-11T13:16:53Z</time>
      </trkpt>
      <trkpt lat="49.04195" lon="2.00576">
        <ele>120</ele>
        <time>2021-10-11T13:17:44Z</time>
      </trkpt>
      <trkpt lat="49.04179" lon="2.00605">
        <ele>119</ele>
        <time>2021-10-11T13:18:17Z</time>
      </trkpt>
      <trkpt lat="49.04163" lon="2.00656">
        <ele>118</ele>
        <time>2021-10-11T13:19:07Z</time>
      </trkpt>
      <trkpt lat="49.04159" lon="2.00659">
        <ele>118</ele>
        <time>2021-10-11T13:19:13Z</time>
      </trkpt>
      <trkpt lat="49.04148" lon="2.00658">
        <ele>118</ele>
        <time>2021-10-11T13:19:27Z</time>
      </trkpt>
      <trkpt lat="49.04136" lon="2.00663">
        <ele>119</ele>
        <time>2021-10-11T13:19:44Z</time>
      </trkpt>
      <trkpt lat="49.04124" lon="2.00682">
        <ele>119</ele>
        <time>2021-10-11T13:20:07Z</time>
      </trkpt>
      <trkpt lat="49.04117" lon="2.00685">
        <ele>119</ele>
        <time>2021-10-11T13:20:17Z</time>
      </trkpt>
      <trkpt lat="49.04113" lon="2.0069">
        <ele>119</ele>
        <time>2021-10-11T13:20:24Z</time>
      </trkpt>
      <trkpt lat="49.0411" lon="2.00704">
        <ele>119</ele>
        <time>2021-10-11T13:20:37Z</time>
      </trkpt>
      <trkpt lat="49.04057" lon="2.00728">
        <ele>119</ele>
        <time>2021-10-11T13:21:50Z</time>
      </trkpt>
      <trkpt lat="49.04039" lon="2.00734">
        <ele>119</ele>
        <time>2021-10-11T13:22:15Z</time>
      </trkpt>
      <trkpt lat="49.04034" lon="2.00733">
        <ele>119</ele>
        <time>2021-10-11T13:22:22Z</time>
      </trkpt>
      <trkpt lat="49.04018" lon="2.00743">
        <ele>119</ele>
        <time>2021-10-11T13:22:45Z</time>
      </trkpt>
      <trkpt lat="49.04004" lon="2.00759">
        <ele>119</ele>
        <time>2021-10-11T13:23:08Z</time>
      </trkpt>
      <trkpt lat="49.03983" lon="2.00775">
        <ele>118</ele>
        <time>2021-10-11T13:23:39Z</time>
      </trkpt>
      <trkpt lat="49.03975" lon="2.00786">
        <ele>118</ele>
        <time>2021-10-11T13:23:54Z</time>
      </trkpt>
      <trkpt lat="49.03965" lon="2.00792">
        <ele>118</ele>
        <time>2021-10-11T13:24:08Z</time>
      </trkpt>
      <trkpt lat="49.03947" lon="2.00796">
        <ele>118</ele>
        <time>2021-10-11T13:24:32Z</time>
      </trkpt>
      <trkpt lat="49.03929" lon="2.00809">
        <ele>118</ele>
        <time>2021-10-11T13:24:59Z</time>
      </trkpt>
      <trkpt lat="49.03915" lon="2.00808">
        <ele>118</ele>
        <time>2021-10-11T13:25:18Z</time>
      </trkpt>
      <trkpt lat="49.03881" lon="2.00764">
        <ele>120</ele>
        <time>2021-10-11T13:26:17Z</time>
      </trkpt>
      <trkpt lat="49.03862" lon="2.00735">
        <ele>122</ele>
        <time>2021-10-11T13:26:53Z</time>
      </trkpt>
      <trkpt lat="49.03843" lon="2.00698">
        <ele>125</ele>
        <time>2021-10-11T13:27:34Z</time>
      </trkpt>
      <trkpt lat="49.03829" lon="2.00612">
        <ele>130</ele>
        <time>2021-10-11T13:28:52Z</time>
      </trkpt>
      <trkpt lat="49.03826" lon="2.00604">
        <ele>130</ele>
        <time>2021-10-11T13:29:00Z</time>
      </trkpt>
      <trkpt lat="49.03808" lon="2.00484">
        <ele>136</ele>
        <time>2021-10-11T13:30:47Z</time>
      </trkpt>
      <trkpt lat="49.038" lon="2.00464">
        <ele>137</ele>
        <time>2021-10-11T13:31:08Z</time>
      </trkpt>
      <trkpt lat="49.03782" lon="2.00436">
        <ele>138</ele>
        <time>2021-10-11T13:31:42Z</time>
      </trkpt>
      <trkpt lat="49.03749" lon="2.00402">
        <ele>140</ele>
        <time>2021-10-11T13:32:35Z</time>
      </trkpt>
      <trkpt lat="49.03747" lon="2.00381">
        <ele>141</ele>
        <time>2021-10-11T13:32:54Z</time>
      </trkpt>
      <trkpt lat="49.03749" lon="2.00294">
        <ele>143</ele>
        <time>2021-10-11T13:34:10Z</time>
      </trkpt>
      <trkpt lat="49.03739" lon="2.00265">
        <ele>144</ele>
        <time>2021-10-11T13:34:39Z</time>
      </trkpt>
      <trkpt lat="49.03733" lon="2.00258">
        <ele>144</ele>
        <time>2021-10-11T13:34:49Z</time>
      </trkpt>
      <trkpt lat="49.03731" lon="2.0025">
        <ele>145</ele>
        <time>2021-10-11T13:34:56Z</time>
      </trkpt>
      <trkpt lat="49.03733" lon="2.00242">
        <ele>145</ele>
        <time>2021-10-11T13:35:04Z</time>
      </trkpt>
      <trkpt lat="49.03725" lon="2.00231">
        <ele>146</ele>
        <time>2021-10-11T13:35:18Z</time>
      </trkpt>
      <trkpt lat="49.03703" lon="2.00189">
        <ele>148</ele>
        <time>2021-10-11T13:36:05Z</time>
      </trkpt>
      <trkpt lat="49.03694" lon="2.00183">
        <ele>149</ele>
        <time>2021-10-11T13:36:18Z</time>
      </trkpt>
      <trkpt lat="49.03687" lon="2.00173">
        <ele>150</ele>
        <time>2021-10-11T13:36:31Z</time>
      </trkpt>
      <trkpt lat="49.03665" lon="2.00156">
        <ele>153</ele>
        <time>2021-10-11T13:37:04Z</time>
      </trkpt>
      <trkpt lat="49.03641" lon="2.0015">
        <ele>154</ele>
        <time>2021-10-11T13:37:36Z</time>
      </trkpt>
      <trkpt lat="49.03635" lon="2.00181">
        <ele>154</ele>
        <time>2021-10-11T13:38:05Z</time>
      </trkpt>
      <trkpt lat="49.03629" lon="2.00196">
        <ele>153</ele>
        <time>2021-10-11T13:38:20Z</time>
      </trkpt>
      <trkpt lat="49.03604" lon="2.00198">
        <ele>154</ele>
        <time>2021-10-11T13:38:54Z</time>
      </trkpt>
      <trkpt lat="49.03585" lon="2.0019">
        <ele>155</ele>
        <time>2021-10-11T13:39:20Z</time>
      </trkpt>
      <trkpt lat="49.0358" lon="2.0019">
        <ele>155</ele>
        <time>2021-10-11T13:39:27Z</time>
      </trkpt>
      <trkpt lat="49.03556" lon="2.00201">
        <ele>155</ele>
        <time>2021-10-11T13:40:00Z</time>
      </trkpt>
      <trkpt lat="49.03551" lon="2.002">
        <ele>155</ele>
        <time>2021-10-11T13:40:07Z</time>
      </trkpt>
      <trkpt lat="49.03535" lon="2.00211">
        <ele>155</ele>
        <time>2021-10-11T13:40:30Z</time>
      </trkpt>
      <trkpt lat="49.03529" lon="2.00212">
        <ele>155</ele>
        <time>2021-10-11T13:40:38Z</time>
      </trkpt>
      <trkpt lat="49.03515" lon="2.00179">
        <ele>156</ele>
        <time>2021-10-11T13:41:13Z</time>
      </trkpt>
      <trkpt lat="49.03506" lon="2.00166">
        <ele>157</ele>
        <time>2021-10-11T13:41:29Z</time>
      </trkpt>
      <trkpt lat="49.03504" lon="2.00166">
        <ele>157</ele>
        <time>2021-10-11T13:41:32Z</time>
      </trkpt>
      <trkpt lat="49.035" lon="2.00174">
        <ele>157</ele>
        <time>2021-10-11T13:41:41Z</time>
      </trkpt>
      <trkpt lat="49.03435" lon="2.00192">
        <ele>154</ele>
        <time>2021-10-11T13:43:09Z</time>
      </trkpt>
      <trkpt lat="49.0342" lon="2.00189">
        <ele>154</ele>
        <time>2021-10-11T13:43:29Z</time>
      </trkpt>
      <trkpt lat="49.03391" lon="2.00188">
        <ele>152</ele>
        <time>2021-10-11T13:44:08Z</time>
      </trkpt>
      <trkpt lat="49.03379" lon="2.00184">
        <ele>151</ele>
        <time>2021-10-11T13:44:24Z</time>
      </trkpt>
      <trkpt lat="49.03343" lon="2.00186">
        <ele>148</ele>
        <time>2021-10-11T13:45:12Z</time>
      </trkpt>
      <trkpt lat="49.03314" lon="2.00183">
        <ele>146</ele>
        <time>2021-10-11T13:45:51Z</time>
      </trkpt>
      <trkpt lat="49.03286" lon="2.00189">
        <ele>145</ele>
        <time>2021-10-11T13:46:29Z</time>
      </trkpt>
      <trkpt lat="49.03256" lon="2.00212">
        <ele>144</ele>
        <time>2021-10-11T13:47:13Z</time>
      </trkpt>
      <trkpt lat="49.03244" lon="2.00218">
        <ele>143</ele>
        <time>2021-10-11T13:47:30Z</time>
      </trkpt>
      <trkpt lat="49.03213" lon="2.00245">
        <ele>141</ele>
        <time>2021-10-11T13:48:18Z</time>
      </trkpt>
      <trkpt lat="49.03191" lon="2.00258">
        <ele>140</ele>
        <time>2021-10-11T13:48:49Z</time>
      </trkpt>
      <trkpt lat="49.03166" lon="2.00264">
        <ele>139</ele>
        <time>2021-10-11T13:49:23Z</time>
      </trkpt>
      <trkpt lat="49.03137" lon="2.00259">
        <ele>139</ele>
        <time>2021-10-11T13:50:02Z</time>
      </trkpt>
      <trkpt lat="49.03132" lon="2.0026">
        <ele>139</ele>
        <time>2021-10-11T13:50:09Z</time>
      </trkpt>
      <trkpt lat="49.03132" lon="2.00265">
        <ele>139</ele>
        <time>2021-10-11T13:50:13Z</time>
      </trkpt>
      <trkpt lat="49.03129" lon="2.00265">
        <ele>139</ele>
        <time>2021-10-11T13:50:17Z</time>
      </trkpt>
      <trkpt lat="49.03123" lon="2.00259">
        <ele>139</ele>
        <time>2021-10-11T13:50:27Z</time>
      </trkpt>
      <trkpt lat="49.0311" lon="2.00257">
        <ele>139</ele>
        <time>2021-10-11T13:50:44Z</time>
      </trkpt>
      <trkpt lat="49.03105" lon="2.00258">
        <ele>139</ele>
        <time>2021-10-11T13:50:51Z</time>
      </trkpt>
      <trkpt lat="49.03101" lon="2.00264">
        <ele>139</ele>
        <time>2021-10-11T13:50:58Z</time>
      </trkpt>
      <trkpt lat="49.03089" lon="2.00265">
        <ele>138</ele>
        <time>2021-10-11T13:51:14Z</time>
      </trkpt>
      <trkpt lat="49.03085" lon="2.00268">
        <ele>138</ele>
        <time>2021-10-11T13:51:20Z</time>
      </trkpt>
      <trkpt lat="49.03037" lon="2.00275">
        <ele>138</ele>
        <time>2021-10-11T13:52:25Z</time>
      </trkpt>
      <trkpt lat="49.03012" lon="2.00281">
        <ele>138</ele>
        <time>2021-10-11T13:52:59Z</time>
      </trkpt>
      <trkpt lat="49.02994" lon="2.0029">
        <ele>138</ele>
        <time>2021-10-11T13:53:24Z</time>
      </trkpt>
      <trkpt lat="49.02912" lon="2.00313">
        <ele>139</ele>
        <time>2021-10-11T13:55:15Z</time>
      </trkpt>
      <trkpt lat="49.02844" lon="2.00339">
        <ele>142</ele>
        <time>2021-10-11T13:56:49Z</time>
      </trkpt>
      <trkpt lat="49.02814" lon="2.00348">
        <ele>143</ele>
        <time>2021-10-11T13:57:29Z</time>
      </trkpt>
      <trkpt lat="49.02805" lon="2.00354">
        <ele>143</ele>
        <time>2021-10-11T13:57:43Z</time>
      </trkpt>
      <trkpt lat="49.02727" lon="2.00379">
        <ele>142</ele>
        <time>2021-10-11T13:59:29Z</time>
      </trkpt>
      <trkpt lat="49.02666" lon="2.00406">
        <ele>139</ele>
        <time>2021-10-11T14:00:54Z</time>
      </trkpt>
      <trkpt lat="49.02648" lon="2.0042">
        <ele>139</ele>
        <time>2021-10-11T14:01:21Z</time>
      </trkpt>
      <trkpt lat="49.02638" lon="2.00434">
        <ele>138</ele>
        <time>2021-10-11T14:01:39Z</time>
      </trkpt>
      <trkpt lat="49.02628" lon="2.00455">
        <ele>137</ele>
        <time>2021-10-11T14:02:01Z</time>
      </trkpt>
      <trkpt lat="49.02619" lon="2.00482">
        <ele>136</ele>
        <time>2021-10-11T14:02:28Z</time>
      </trkpt>
      <trkpt lat="49.02608" lon="2.00535">
        <ele>135</ele>
        <time>2021-10-11T14:03:17Z</time>
      </trkpt>
      <trkpt lat="49.02599" lon="2.00558">
        <ele>134</ele>
        <time>2021-10-11T14:03:40Z</time>
      </trkpt>
      <trkpt lat="49.02598" lon="2.00574">
        <ele>134</ele>
        <time>2021-10-11T14:03:54Z</time>
      </trkpt>
      <trkpt lat="49.02603" lon="2.00581">
        <ele>134</ele>
        <time>2021-10-11T14:04:03Z</time>
      </trkpt>
      <trkpt lat="49.02605" lon="2.00592">
        <ele>133</ele>
        <time>2021-10-11T14:04:13Z</time>
      </trkpt>
      <trkpt lat="49.02592" lon="2.00555">
        <ele>134</ele>
        <time>2021-10-11T14:04:50Z</time>
      </trkpt>
      <trkpt lat="49.02588" lon="2.00532">
        <ele>134</ele>
        <time>2021-10-11T14:05:11Z</time>
      </trkpt>
      <trkpt lat="49.02573" lon="2.00523">
        <ele>135</ele>
        <time>2021-10-11T14:05:32Z</time>
      </trkpt>
      <trkpt lat="49.02524" lon="2.00403">
        <ele>142</ele>
        <time>2021-10-11T14:07:36Z</time>
      </trkpt>
      <trkpt lat="49.0252" lon="2.004">
        <ele>143</ele>
        <time>2021-10-11T14:07:42Z</time>
      </trkpt>
      <trkpt lat="49.02493" lon="2.00394">
        <ele>144</ele>
        <time>2021-10-11T14:08:18Z</time>
      </trkpt>
      <trkpt lat="49.02483" lon="2.00394">
        <ele>144</ele>
        <time>2021-10-11T14:08:32Z</time>
      </trkpt>
      <trkpt lat="49.02477" lon="2.00403">
        <ele>144</ele>
        <time>2021-10-11T14:08:43Z</time>
      </trkpt>
      <trkpt lat="49.02472" lon="2.00406">
        <ele>144</ele>
        <time>2021-10-11T14:08:50Z</time>
      </trkpt>
      <trkpt lat="49.02456" lon="2.00413">
        <ele>144</ele>
        <time>2021-10-11T14:09:12Z</time>
      </trkpt>
      <trkpt lat="49.02454" lon="2.00416">
        <ele>144</ele>
        <time>2021-10-11T14:09:16Z</time>
      </trkpt>
      <trkpt lat="49.02431" lon="2.00421">
        <ele>144</ele>
        <time>2021-10-11T14:09:47Z</time>
      </trkpt>
      <trkpt lat="49.02369" lon="2.00462">
        <ele>139</ele>
        <time>2021-10-11T14:11:17Z</time>
      </trkpt>
      <trkpt lat="49.02365" lon="2.00465">
        <ele>139</ele>
        <time>2021-10-11T14:11:23Z</time>
      </trkpt>
      <trkpt lat="49.02368" lon="2.00495">
        <ele>137</ele>
        <time>2021-10-11T14:11:50Z</time>
      </trkpt>
      <trkpt lat="49.02351" lon="2.005">
        <ele>136</ele>
        <time>2021-10-11T14:12:13Z</time>
      </trkpt>
      <trkpt lat="49.02305" lon="2.00527">
        <ele>131</ele>
        <time>2021-10-11T14:13:19Z</time>
      </trkpt>
      <trkpt lat="49.02302" lon="2.00542">
        <ele>130</ele>
        <time>2021-10-11T14:13:32Z</time>
      </trkpt>
      <trkpt lat="49.02322" lon="2.00576">
        <ele>129</ele>
        <time>2021-10-11T14:14:12Z</time>
      </trkpt>
      <trkpt lat="49.02326" lon="2.0059">
        <ele>129</ele>
        <time>2021-10-11T14:14:26Z</time>
      </trkpt>
      <trkpt lat="49.02324" lon="2.00597">
        <ele>129</ele>
        <time>2021-10-11T14:14:32Z</time>
      </trkpt>
      <trkpt lat="49.02287" lon="2.00626">
        <ele>124</ele>
        <time>2021-10-11T14:15:28Z</time>
      </trkpt>
      <trkpt lat="49.02145" lon="2.00756">
        <ele>117</ele>
        <time>2021-10-11T14:19:09Z</time>
      </trkpt>
      <trkpt lat="49.02098" lon="2.00795">
        <ele>116</ele>
        <time>2021-10-11T14:20:20Z</time>
      </trkpt>
      <trkpt lat="49.0205" lon="2.00843">
        <ele>113</ele>
        <time>2021-10-11T14:21:37Z</time>
      </trkpt>
      <trkpt lat="49.02047" lon="2.00837">
        <ele>113</ele>
        <time>2021-10-11T14:21:43Z</time>
      </trkpt>
      <trkpt lat="49.02043" lon="2.0081">
        <ele>115</ele>
        <time>2021-10-11T14:22:08Z</time>
      </trkpt>
      <trkpt lat="49.02043" lon="2.00783">
        <ele>117</ele>
        <time>2021-10-11T14:22:31Z</time>
      </trkpt>
      <trkpt lat="49.02026" lon="2.00597">
        <ele>123</ele>
        <time>2021-10-11T14:25:16Z</time>
      </trkpt>
      <trkpt lat="49.02014" lon="2.00536">
        <ele>126</ele>
        <time>2021-10-11T14:26:11Z</time>
      </trkpt>
      <trkpt lat="49.01985" lon="2.0043">
        <ele>132</ele>
        <time>2021-10-11T14:27:52Z</time>
      </trkpt>
      <trkpt lat="49.01983" lon="2.00431">
        <ele>132</ele>
        <time>2021-10-11T14:27:55Z</time>
      </trkpt>
      <trkpt lat="49.01982" lon="2.00379">
        <ele>136</ele>
        <time>2021-10-11T14:28:40Z</time>
      </trkpt>
      <trkpt lat="49.01986" lon="2.00372">
        <ele>137</ele>
        <time>2021-10-11T14:28:48Z</time>
      </trkpt>
      <trkpt lat="49.01984" lon="2.00372">
        <ele>137</ele>
        <time>2021-10-11T14:28:51Z</time>
      </trkpt>
      <trkpt lat="49.01983" lon="2.00361">
        <ele>138</ele>
        <time>2021-10-11T14:29:01Z</time>
      </trkpt>
      <trkpt lat="49.01987" lon="2.00357">
        <ele>139</ele>
        <time>2021-10-11T14:29:07Z</time>
      </trkpt>
      <trkpt lat="49.01983" lon="2.00341">
        <ele>140</ele>
        <time>2021-10-11T14:29:22Z</time>
      </trkpt>
      <trkpt lat="49.01983" lon="2.00285">
        <ele>145</ele>
        <time>2021-10-11T14:30:11Z</time>
      </trkpt>
      <trkpt lat="49.01989" lon="2.00238">
        <ele>149</ele>
        <time>2021-10-11T14:30:53Z</time>
      </trkpt>
      <trkpt lat="49.0199" lon="2.00091">
        <ele>161</ele>
        <time>2021-10-11T14:33:02Z</time>
      </trkpt>
      <trkpt lat="49.01984" lon="2.00088">
        <ele>161</ele>
        <time>2021-10-11T14:33:10Z</time>
      </trkpt>
      <trkpt lat="49.01947" lon="2.00106">
        <ele>158</ele>
        <time>2021-10-11T14:34:02Z</time>
      </trkpt>
      <trkpt lat="49.01928" lon="2.00109">
        <ele>157</ele>
        <time>2021-10-11T14:34:27Z</time>
      </trkpt>
      <trkpt lat="49.01897" lon="2.00123">
        <ele>154</ele>
        <time>2021-10-11T14:35:11Z</time>
      </trkpt>
      <trkpt lat="49.01878" lon="2.00126">
        <ele>154</ele>
        <time>2021-10-11T14:35:36Z</time>
      </trkpt>
      <trkpt lat="49.01857" lon="2.00143">
        <ele>152</ele>
        <time>2021-10-11T14:36:08Z</time>
      </trkpt>
      <trkpt lat="49.01832" lon="2.00171">
        <ele>150</ele>
        <time>2021-10-11T14:36:49Z</time>
      </trkpt>
      <trkpt lat="49.018" lon="2.00199">
        <ele>153</ele>
        <time>2021-10-11T14:37:38Z</time>
      </trkpt>
      <trkpt lat="49.01756" lon="2.00221">
        <ele>155</ele>
        <time>2021-10-11T14:38:40Z</time>
      </trkpt>
      <trkpt lat="49.01737" lon="2.00242">
        <ele>155</ele>
        <time>2021-10-11T14:39:11Z</time>
      </trkpt>
      <trkpt lat="49.01727" lon="2.00249">
        <ele>156</ele>
        <time>2021-10-11T14:39:26Z</time>
      </trkpt>
      <trkpt lat="49.01719" lon="2.00265">
        <ele>156</ele>
        <time>2021-10-11T14:39:44Z</time>
      </trkpt>
      <trkpt lat="49.01699" lon="2.00291">
        <ele>157</ele>
        <time>2021-10-11T14:40:19Z</time>
      </trkpt>
      <trkpt lat="49.01696" lon="2.00298">
        <ele>157</ele>
        <time>2021-10-11T14:40:26Z</time>
      </trkpt>
      <trkpt lat="49.01688" lon="2.00337">
        <ele>156</ele>
        <time>2021-10-11T14:41:02Z</time>
      </trkpt>
      <trkpt lat="49.01692" lon="2.00352">
        <ele>155</ele>
        <time>2021-10-11T14:41:16Z</time>
      </trkpt>
      <trkpt lat="49.01691" lon="2.00367">
        <ele>155</ele>
        <time>2021-10-11T14:41:29Z</time>
      </trkpt>
      <trkpt lat="49.017" lon="2.00371">
        <ele>155</ele>
        <time>2021-10-11T14:41:42Z</time>
      </trkpt>
      <trkpt lat="49.01701" lon="2.00368">
        <ele>155</ele>
        <time>2021-10-11T14:41:45Z</time>
      </trkpt>
      <trkpt lat="49.01691" lon="2.00378">
        <ele>154</ele>
        <time>2021-10-11T14:42:01Z</time>
      </trkpt>
      <trkpt lat="49.0168" lon="2.00384">
        <ele>154</ele>
        <time>2021-10-11T14:42:16Z</time>
      </trkpt>
      <trkpt lat="49.01673" lon="2.00397">
        <ele>153</ele>
        <time>2021-10-11T14:42:31Z</time>
      </trkpt>
      <trkpt lat="49.0166" lon="2.00411">
        <ele>152</ele>
        <time>2021-10-11T14:42:52Z</time>
      </trkpt>
      <trkpt lat="49.01647" lon="2.00416">
        <ele>152</ele>
        <time>2021-10-11T14:43:10Z</time>
      </trkpt>
      <trkpt lat="49.01645" lon="2.00413">
        <ele>152</ele>
        <time>2021-10-11T14:43:14Z</time>
      </trkpt>
      <trkpt lat="49.01624" lon="2.00431">
        <ele>151</ele>
        <time>2021-10-11T14:43:46Z</time>
      </trkpt>
      <trkpt lat="49.01611" lon="2.00436">
        <ele>150</ele>
        <time>2021-10-11T14:44:04Z</time>
      </trkpt>
      <trkpt lat="49.01594" lon="2.00432">
        <ele>150</ele>
        <time>2021-10-11T14:44:27Z</time>
      </trkpt>
      <trkpt lat="49.01578" lon="2.00425">
        <ele>150</ele>
        <time>2021-10-11T14:44:49Z</time>
      </trkpt>
      <trkpt lat="49.01555" lon="2.00425">
        <ele>149</ele>
        <time>2021-10-11T14:45:20Z</time>
      </trkpt>
      <trkpt lat="49.0154" lon="2.00417">
        <ele>148</ele>
        <time>2021-10-11T14:45:41Z</time>
      </trkpt>
      <trkpt lat="49.01527" lon="2.00417">
        <ele>148</ele>
        <time>2021-10-11T14:45:58Z</time>
      </trkpt>
      <trkpt lat="49.01508" lon="2.00422">
        <ele>146</ele>
        <time>2021-10-11T14:46:24Z</time>
      </trkpt>
      <trkpt lat="49.01475" lon="2.00438">
        <ele>148</ele>
        <time>2021-10-11T14:47:10Z</time>
      </trkpt>
      <trkpt lat="49.01465" lon="2.0045">
        <ele>149</ele>
        <time>2021-10-11T14:47:27Z</time>
      </trkpt>
      <trkpt lat="49.01456" lon="2.00473">
        <ele>150</ele>
        <time>2021-10-11T14:47:51Z</time>
      </trkpt>
      <trkpt lat="49.0144" lon="2.00498">
        <ele>151</ele>
        <time>2021-10-11T14:48:21Z</time>
      </trkpt>
      <trkpt lat="49.01418" lon="2.0052">
        <ele>152</ele>
        <time>2021-10-11T14:48:56Z</time>
      </trkpt>
      <trkpt lat="49.01412" lon="2.00522">
        <ele>153</ele>
        <time>2021-10-11T14:49:05Z</time>
      </trkpt>
      <trkpt lat="49.01387" lon="2.00544">
        <ele>154</ele>
        <time>2021-10-11T14:49:43Z</time>
      </trkpt>
      <trkpt lat="49.01375" lon="2.0056">
        <ele>154</ele>
        <time>2021-10-11T14:50:04Z</time>
      </trkpt>
      <trkpt lat="49.01354" lon="2.00596">
        <ele>152</ele>
        <time>2021-10-11T14:50:47Z</time>
      </trkpt>
      <trkpt lat="49.01337" lon="2.00604">
        <ele>153</ele>
        <time>2021-10-11T14:51:10Z</time>
      </trkpt>
      <trkpt lat="49.01317" lon="2.00627">
        <ele>151</ele>
        <time>2021-10-11T14:51:44Z</time>
      </trkpt>
      <trkpt lat="49.01304" lon="2.00653">
        <ele>148</ele>
        <time>2021-10-11T14:52:12Z</time>
      </trkpt>
      <trkpt lat="49.01286" lon="2.00703">
        <ele>144</ele>
        <time>2021-10-11T14:53:02Z</time>
      </trkpt>
      <trkpt lat="49.01277" lon="2.00712">
        <ele>143</ele>
        <time>2021-10-11T14:53:17Z</time>
      </trkpt>
      <trkpt lat="49.01275" lon="2.00721">
        <ele>143</ele>
        <time>2021-10-11T14:53:25Z</time>
      </trkpt>
      <trkpt lat="49.01256" lon="2.00728">
        <ele>141</ele>
        <time>2021-10-11T14:53:51Z</time>
      </trkpt>
      <trkpt lat="49.01242" lon="2.00748">
        <ele>140</ele>
        <time>2021-10-11T14:54:17Z</time>
      </trkpt>
      <trkpt lat="49.01236" lon="2.00753">
        <ele>141</ele>
        <time>2021-10-11T14:54:26Z</time>
      </trkpt>
      <trkpt lat="49.01212" lon="2.00765">
        <ele>141</ele>
        <time>2021-10-11T14:54:59Z</time>
      </trkpt>
      <trkpt lat="49.01195" lon="2.00778">
        <ele>142</ele>
        <time>2021-10-11T14:55:25Z</time>
      </trkpt>
      <trkpt lat="49.01186" lon="2.00794">
        <ele>142</ele>
        <time>2021-10-11T14:55:43Z</time>
      </trkpt>
      <trkpt lat="49.0118" lon="2.00812">
        <ele>142</ele>
        <time>2021-10-11T14:56:01Z</time>
      </trkpt>
      <trkpt lat="49.01145" lon="2.00869">
        <ele>143</ele>
        <time>2021-10-11T14:57:09Z</time>
      </trkpt>
      <trkpt lat="49.01141" lon="2.00883">
        <ele>144</ele>
        <time>2021-10-11T14:57:23Z</time>
      </trkpt>
      <trkpt lat="49.01113" lon="2.00908">
        <ele>146</ele>
        <time>2021-10-11T14:58:06Z</time>
      </trkpt>
      <trkpt lat="49.01105" lon="2.00919">
        <ele>147</ele>
        <time>2021-10-11T14:58:20Z</time>
      </trkpt>
      <trkpt lat="49.0108" lon="2.00944">
        <ele>147</ele>
        <time>2021-10-11T14:59:00Z</time>
      </trkpt>
      <trkpt lat="49.01048" lon="2.00961">
        <ele>147</ele>
        <time>2021-10-11T14:59:45Z</time>
      </trkpt>
      <trkpt lat="49.01025" lon="2.00979">
        <ele>146</ele>
        <time>2021-10-11T15:00:20Z</time>
      </trkpt>
      <trkpt lat="49.01009" lon="2.00995">
        <ele>145</ele>
        <time>2021-10-11T15:00:45Z</time>
      </trkpt>
      <trkpt lat="49.00968" lon="2.01022">
        <ele>143</ele>
        <time>2021-10-11T15:01:45Z</time>
      </trkpt>
      <trkpt lat="49.00941" lon="2.01045">
        <ele>141</ele>
        <time>2021-10-11T15:02:26Z</time>
      </trkpt>
      <trkpt lat="49.009" lon="2.01069">
        <ele>139</ele>
        <time>2021-10-11T15:03:25Z</time>
      </trkpt>
      <trkpt lat="49.00827" lon="2.01156">
        <ele>135</ele>
        <time>2021-10-11T15:05:29Z</time>
      </trkpt>
      <trkpt lat="49.00798" lon="2.01185">
        <ele>135</ele>
        <time>2021-10-11T15:06:15Z</time>
      </trkpt>
      <trkpt lat="49.00772" lon="2.01234">
        <ele>135</ele>
        <time>2021-10-11T15:07:10Z</time>
      </trkpt>
      <trkpt lat="49.00739" lon="2.01286">
        <ele>134</ele>
        <time>2021-10-11T15:08:13Z</time>
      </trkpt>
      <trkpt lat="49.00724" lon="2.01318">
        <ele>132</ele>
        <time>2021-10-11T15:08:48Z</time>
      </trkpt>
      <trkpt lat="49.00719" lon="2.01324">
        <ele>132</ele>
        <time>2021-10-11T15:08:56Z</time>
      </trkpt>
      <trkpt lat="49.00698" lon="2.01373">
        <ele>129</ele>
        <time>2021-10-11T15:09:48Z</time>
      </trkpt>
      <trkpt lat="49.00684" lon="2.01395">
        <ele>128</ele>
        <time>2021-10-11T15:10:14Z</time>
      </trkpt>
      <trkpt lat="49.0071" lon="2.01438">
        <ele>125</ele>
        <time>2021-10-11T15:11:06Z</time>
      </trkpt>
      <trkpt lat="49.00721" lon="2.0145">
        <ele>124</ele>
        <time>2021-10-11T15:11:24Z</time>
      </trkpt>
      <trkpt lat="49.00723" lon="2.0149">
        <ele>122</ele>
        <time>2021-10-11T15:11:59Z</time>
      </trkpt>
      <trkpt lat="49.00735" lon="2.01547">
        <ele>119</ele>
        <time>2021-10-11T15:12:51Z</time>
      </trkpt>
      <trkpt lat="49.00732" lon="2.01556">
        <ele>119</ele>
        <time>2021-10-11T15:13:00Z</time>
      </trkpt>
      <trkpt lat="49.00708" lon="2.01564">
        <ele>120</ele>
        <time>2021-10-11T15:13:33Z</time>
      </trkpt>
      <trkpt lat="49.00696" lon="2.01571">
        <ele>120</ele>
        <time>2021-10-11T15:13:50Z</time>
      </trkpt>
      <trkpt lat="49.00687" lon="2.0158">
        <ele>120</ele>
        <time>2021-10-11T15:14:04Z</time>
      </trkpt>
      <trkpt lat="49.00626" lon="2.01615">
        <ele>121</ele>
        <time>2021-10-11T15:15:31Z</time>
      </trkpt>
      <trkpt lat="49.00626" lon="2.01664">
        <ele>119</ele>
        <time>2021-10-11T15:16:14Z</time>
      </trkpt>
      <trkpt lat="49.00637" lon="2.0171">
        <ele>117</ele>
        <time>2021-10-11T15:16:57Z</time>
      </trkpt>
      <trkpt lat="49.00635" lon="2.01731">
        <ele>116</ele>
        <time>2021-10-11T15:17:16Z</time>
      </trkpt>
      <trkpt lat="49.00636" lon="2.01766">
        <ele>115</ele>
        <time>2021-10-11T15:17:46Z</time>
      </trkpt>
      <trkpt lat="49.00621" lon="2.01783">
        <ele>114</ele>
        <time>2021-10-11T15:18:11Z</time>
      </trkpt>
      <trkpt lat="49.00585" lon="2.01803">
        <ele>114</ele>
        <time>2021-10-11T15:19:02Z</time>
      </trkpt>
      <trkpt lat="49.00573" lon="2.01815">
        <ele>114</ele>
        <time>2021-10-11T15:19:21Z</time>
      </trkpt>
      <trkpt lat="49.00549" lon="2.01832">
        <ele>116</ele>
        <time>2021-10-11T15:19:57Z</time>
      </trkpt>
      <trkpt lat="49.0051" lon="2.01867">
        <ele>117</ele>
        <time>2021-10-11T15:20:57Z</time>
      </trkpt>
      <trkpt lat="49.00485" lon="2.01895">
        <ele>118</ele>
        <time>2021-10-11T15:21:39Z</time>
      </trkpt>
      <trkpt lat="49.00458" lon="2.01941">
        <ele>119</ele>
        <time>2021-10-11T15:22:33Z</time>
      </trkpt>
      <trkpt lat="49.00416" lon="2.01998">
        <ele>122</ele>
        <time>2021-10-11T15:23:48Z</time>
      </trkpt>
      <trkpt lat="49.00383" lon="2.02055">
        <ele>124</ele>
        <time>2021-10-11T15:24:54Z</time>
      </trkpt>
      <trkpt lat="49.00375" lon="2.02075">
        <ele>124</ele>
        <time>2021-10-11T15:25:15Z</time>
      </trkpt>
      <trkpt lat="49.00347" lon="2.02105">
        <ele>127</ele>
        <time>2021-10-11T15:26:00Z</time>
      </trkpt>
      <trkpt lat="49.00333" lon="2.02128">
        <ele>128</ele>
        <time>2021-10-11T15:26:28Z</time>
      </trkpt>
      <trkpt lat="49.00323" lon="2.02152">
        <ele>128</ele>
        <time>2021-10-11T15:26:53Z</time>
      </trkpt>
      <trkpt lat="49.00309" lon="2.02169">
        <ele>129</ele>
        <time>2021-10-11T15:27:17Z</time>
      </trkpt>
      <trkpt lat="49.00307" lon="2.02176">
        <ele>129</ele>
        <time>2021-10-11T15:27:23Z</time>
      </trkpt>
      <trkpt lat="49.00266" lon="2.02238">
        <ele>132</ele>
        <time>2021-10-11T15:28:40Z</time>
      </trkpt>
      <trkpt lat="49.00256" lon="2.02248">
        <ele>133</ele>
        <time>2021-10-11T15:28:56Z</time>
      </trkpt>
      <trkpt lat="49.00252" lon="2.02259">
        <ele>133</ele>
        <time>2021-10-11T15:29:07Z</time>
      </trkpt>
      <trkpt lat="49.00231" lon="2.0228">
        <ele>131</ele>
        <time>2021-10-11T15:29:41Z</time>
      </trkpt>
      <trkpt lat="49.00221" lon="2.02286">
        <ele>131</ele>
        <time>2021-10-11T15:29:55Z</time>
      </trkpt>
      <trkpt lat="49.00208" lon="2.02306">
        <ele>130</ele>
        <time>2021-10-11T15:30:20Z</time>
      </trkpt>
      <trkpt lat="49.00187" lon="2.02323">
        <ele>131</ele>
        <time>2021-10-11T15:30:52Z</time>
      </trkpt>
      <trkpt lat="49.0018" lon="2.02326">
        <ele>131</ele>
        <time>2021-10-11T15:31:01Z</time>
      </trkpt>
      <trkpt lat="49.00175" lon="2.02332">
        <ele>131</ele>
        <time>2021-10-11T15:31:10Z</time>
      </trkpt>
      <trkpt lat="49.00168" lon="2.02348">
        <ele>130</ele>
        <time>2021-10-11T15:31:27Z</time>
      </trkpt>
      <trkpt lat="49.00156" lon="2.02355">
        <ele>131</ele>
        <time>2021-10-11T15:31:44Z</time>
      </trkpt>
      <trkpt lat="49.00151" lon="2.02363">
        <ele>131</ele>
        <time>2021-10-11T15:31:53Z</time>
      </trkpt>
      <trkpt lat="49.00146" lon="2.02363">
        <ele>131</ele>
        <time>2021-10-11T15:32:00Z</time>
      </trkpt>
      <trkpt lat="49.0014" lon="2.0239">
        <ele>130</ele>
        <time>2021-10-11T15:32:25Z</time>
      </trkpt>
      <trkpt lat="49.00142" lon="2.02399">
        <ele>129</ele>
        <time>2021-10-11T15:32:33Z</time>
      </trkpt>
      <trkpt lat="49.00139" lon="2.02419">
        <ele>127</ele>
        <time>2021-10-11T15:32:51Z</time>
      </trkpt>
      <trkpt lat="49.0014" lon="2.02428">
        <ele>126</ele>
        <time>2021-10-11T15:32:59Z</time>
      </trkpt>
      <trkpt lat="49.00153" lon="2.02461">
        <ele>121</ele>
        <time>2021-10-11T15:33:33Z</time>
      </trkpt>
      <trkpt lat="49.00155" lon="2.02475">
        <ele>119</ele>
        <time>2021-10-11T15:33:46Z</time>
      </trkpt>
      <trkpt lat="49.00182" lon="2.0254">
        <ele>113</ele>
        <time>2021-10-11T15:34:53Z</time>
      </trkpt>
      <trkpt lat="49.00197" lon="2.02557">
        <ele>112</ele>
        <time>2021-10-11T15:35:18Z</time>
      </trkpt>
      <trkpt lat="49.00267" lon="2.02612">
        <ele>107</ele>
        <time>2021-10-11T15:37:03Z</time>
      </trkpt>
      <trkpt lat="49.00314" lon="2.02661">
        <ele>104</ele>
        <time>2021-10-11T15:38:19Z</time>
      </trkpt>
      <trkpt lat="49.00336" lon="2.02695">
        <ele>102</ele>
        <time>2021-10-11T15:39:01Z</time>
      </trkpt>
      <trkpt lat="49.00363" lon="2.02759">
        <ele>99</ele>
        <time>2021-10-11T15:40:07Z</time>
      </trkpt>
      <trkpt lat="49.00388" lon="2.02836">
        <ele>97</ele>
        <time>2021-10-11T15:41:23Z</time>
      </trkpt>
      <trkpt lat="49.0044" lon="2.02972">
        <ele>92</ele>
        <time>2021-10-11T15:43:40Z</time>
      </trkpt>
      <trkpt lat="49.00452" lon="2.03041">
        <ele>91</ele>
        <time>2021-10-11T15:44:43Z</time>
      </trkpt>
      <trkpt lat="49.0046" lon="2.03116">
        <ele>90</ele>
        <time>2021-10-11T15:45:49Z</time>
      </trkpt>
      <trkpt lat="49.00473" lon="2.03192">
        <ele>89</ele>
        <time>2021-10-11T15:46:58Z</time>
      </trkpt>
      <trkpt lat="49.00487" lon="2.03254">
        <ele>87</ele>
        <time>2021-10-11T15:47:56Z</time>
      </trkpt>
      <trkpt lat="49.00529" lon="2.03402">
        <ele>85</ele>
        <time>2021-10-11T15:50:17Z</time>
      </trkpt>
      <trkpt lat="49.00539" lon="2.03448">
        <ele>85</ele>
        <time>2021-10-11T15:50:59Z</time>
      </trkpt>
      <trkpt lat="49.00548" lon="2.03474">
        <ele>86</ele>
        <time>2021-10-11T15:51:25Z</time>
      </trkpt>
      <trkpt lat="49.00526" lon="2.03542">
        <ele>84</ele>
        <time>2021-10-11T15:52:31Z</time>
      </trkpt>
      <trkpt lat="49.00518" lon="2.03577">
        <ele>84</ele>
        <time>2021-10-11T15:53:04Z</time>
      </trkpt>
      <trkpt lat="49.00519" lon="2.03584">
        <ele>84</ele>
        <time>2021-10-11T15:53:10Z</time>
      </trkpt>
      <trkpt lat="49.00501" lon="2.03605">
        <ele>83</ele>
        <time>2021-10-11T15:53:40Z</time>
      </trkpt>
      <trkpt lat="49.00486" lon="2.03637">
        <ele>82</ele>
        <time>2021-10-11T15:54:15Z</time>
      </trkpt>
      <trkpt lat="49.00451" lon="2.03878">
        <ele>80</ele>
        <time>2021-10-11T15:57:51Z</time>
      </trkpt>
      <trkpt lat="49.00451" lon="2.03888">
        <ele>80</ele>
        <time>2021-10-11T15:57:59Z</time>
      </trkpt>
      <trkpt lat="49.00453" lon="2.03898">
        <ele>80</ele>
        <time>2021-10-11T15:58:09Z</time>
      </trkpt>
      <trkpt lat="49.00455" lon="2.03899">
        <ele>80</ele>
        <time>2021-10-11T15:58:11Z</time>
      </trkpt>
      <trkpt lat="49.0045" lon="2.03905">
        <ele>80</ele>
        <time>2021-10-11T15:58:20Z</time>
      </trkpt>
      <trkpt lat="49.00446" lon="2.03933">
        <ele>79</ele>
        <time>2021-10-11T15:58:45Z</time>
      </trkpt>
      <trkpt lat="49.00446" lon="2.03953">
        <ele>79</ele>
        <time>2021-10-11T15:59:03Z</time>
      </trkpt>
      <trkpt lat="49.0045" lon="2.03973">
        <ele>78</ele>
        <time>2021-10-11T15:59:21Z</time>
      </trkpt>
      <trkpt lat="49.00459" lon="2.03989">
        <ele>78</ele>
        <time>2021-10-11T15:59:39Z</time>
      </trkpt>
      <trkpt lat="49.00456" lon="2.03987">
        <ele>78</ele>
        <time>2021-10-11T15:59:44Z</time>
      </trkpt>
      <trkpt lat="49.0046" lon="2.03996">
        <ele>78</ele>
        <time>2021-10-11T15:59:53Z</time>
      </trkpt>
      <trkpt lat="49.00459" lon="2.04016">
        <ele>78</ele>
        <time>2021-10-11T16:00:11Z</time>
      </trkpt>
      <trkpt lat="49.00464" lon="2.04057">
        <ele>78</ele>
        <time>2021-10-11T16:00:47Z</time>
      </trkpt>
      <trkpt lat="49.0046" lon="2.04095">
        <ele>78</ele>
        <time>2021-10-11T16:01:21Z</time>
      </trkpt>
      <trkpt lat="49.00458" lon="2.04219">
        <ele>76</ele>
        <time>2021-10-11T16:03:10Z</time>
      </trkpt>
      <trkpt lat="49.0045" lon="2.04325">
        <ele>73</ele>
        <time>2021-10-11T16:04:43Z</time>
      </trkpt>
      <trkpt lat="49.00453" lon="2.04375">
        <ele>72</ele>
        <time>2021-10-11T16:05:27Z</time>
      </trkpt>
      <trkpt lat="49.00457" lon="2.04382">
        <ele>72</ele>
        <time>2021-10-11T16:05:35Z</time>
      </trkpt>
      <trkpt lat="49.00458" lon="2.04398">
        <ele>72</ele>
        <time>2021-10-11T16:05:49Z</time>
      </trkpt>
      <trkpt lat="49.00456" lon="2.04441">
        <ele>71</ele>
        <time>2021-10-11T16:06:27Z</time>
      </trkpt>
      <trkpt lat="49.0045" lon="2.04491">
        <ele>69</ele>
        <time>2021-10-11T16:07:11Z</time>
      </trkpt>
      <trkpt lat="49.00449" lon="2.0452">
        <ele>67</ele>
        <time>2021-10-11T16:07:37Z</time>
      </trkpt>
      <trkpt lat="49.00445" lon="2.04537">
        <ele>67</ele>
        <time>2021-10-11T16:07:53Z</time>
      </trkpt>
      <trkpt lat="49.00444" lon="2.04579">
        <ele>65</ele>
        <time>2021-10-11T16:08:29Z</time>
      </trkpt>
      <trkpt lat="49.00441" lon="2.04596">
        <ele>65</ele>
        <time>2021-10-11T16:08:45Z</time>
      </trkpt>
      <trkpt lat="49.00429" lon="2.04585">
        <ele>65</ele>
        <time>2021-10-11T16:09:03Z</time>
      </trkpt>
      <trkpt lat="49.00425" lon="2.04587">
        <ele>65</ele>
        <time>2021-10-11T16:09:09Z</time>
      </trkpt>
      <trkpt lat="49.00429" lon="2.0459">
        <ele>65</ele>
        <time>2021-10-11T16:09:15Z</time>
      </trkpt>
      <trkpt lat="49.00433" lon="2.04588">
        <ele>65</ele>
        <time>2021-10-11T16:09:21Z</time>
      </trkpt>
      <trkpt lat="49.00445" lon="2.04593">
        <ele>65</ele>
        <time>2021-10-11T16:09:37Z</time>
      </trkpt>
      <trkpt lat="49.00449" lon="2.04599">
        <ele>65</ele>
        <time>2021-10-11T16:09:45Z</time>
      </trkpt>
      <trkpt lat="49.00451" lon="2.04644">
        <ele>63</ele>
        <time>2021-10-11T16:10:24Z</time>
      </trkpt>
      <trkpt lat="49.00462" lon="2.0469">
        <ele>61</ele>
        <time>2021-10-11T16:11:07Z</time>
      </trkpt>
      <trkpt lat="49.00489" lon="2.04781">
        <ele>56</ele>
        <time>2021-10-11T16:12:34Z</time>
      </trkpt>
      <trkpt lat="49.00499" lon="2.04806">
        <ele>55</ele>
        <time>2021-10-11T16:13:00Z</time>
      </trkpt>
      <trkpt lat="49.0051" lon="2.04825">
        <ele>55</ele>
        <time>2021-10-11T16:13:22Z</time>
      </trkpt>
      <trkpt lat="49.00522" lon="2.0486">
        <ele>56</ele>
        <time>2021-10-11T16:13:57Z</time>
      </trkpt>
      <trkpt lat="49.00533" lon="2.04937">
        <ele>57</ele>
        <time>2021-10-11T16:15:06Z</time>
      </trkpt>
      <trkpt lat="49.00535" lon="2.04986">
        <ele>57</ele>
        <time>2021-10-11T16:15:49Z</time>
      </trkpt>
      <trkpt lat="49.00539" lon="2.05018">
        <ele>56</ele>
        <time>2021-10-11T16:16:17Z</time>
      </trkpt>
      <trkpt lat="49.00535" lon="2.0506">
        <ele>55</ele>
        <time>2021-10-11T16:16:54Z</time>
      </trkpt>
      <trkpt lat="49.00537" lon="2.05118">
        <ele>53</ele>
        <time>2021-10-11T16:17:45Z</time>
      </trkpt>
      <trkpt lat="49.00541" lon="2.05144">
        <ele>51</ele>
        <time>2021-10-11T16:18:09Z</time>
      </trkpt>
      <trkpt lat="49.00549" lon="2.05189">
        <ele>48</ele>
        <time>2021-10-11T16:18:50Z</time>
      </trkpt>
      <trkpt lat="49.00634" lon="2.0553">
        <ele>33</ele>
        <time>2021-10-11T16:24:09Z</time>
      </trkpt>
      <trkpt lat="49.0064" lon="2.05531">
        <ele>32</ele>
        <time>2021-10-11T16:24:17Z</time>
      </trkpt>
      <trkpt lat="49.00699" lon="2.05486">
        <ele>34</ele>
        <time>2021-10-11T16:25:45Z</time>
      </trkpt>
      <trkpt lat="49.00761" lon="2.05448">
        <ele>37</ele>
        <time>2021-10-11T16:27:14Z</time>
      </trkpt>
      <trkpt lat="49.00783" lon="2.05431">
        <ele>38</ele>
        <time>2021-10-11T16:27:47Z</time>
      </trkpt>
      <trkpt lat="49.00888" lon="2.05361">
        <ele>38</ele>
        <time>2021-10-11T16:30:20Z</time>
      </trkpt>
      <trkpt lat="49.00912" lon="2.05348">
        <ele>38</ele>
        <time>2021-10-11T16:30:54Z</time>
      </trkpt>
      <trkpt lat="49.01024" lon="2.053">
        <ele>40</ele>
        <time>2021-10-11T16:33:29Z</time>
      </trkpt>
      <trkpt lat="49.01047" lon="2.05285">
        <ele>40</ele>
        <time>2021-10-11T16:34:03Z</time>
      </trkpt>
      <trkpt lat="49.01074" lon="2.05272">
        <ele>39</ele>
        <time>2021-10-11T16:34:40Z</time>
      </trkpt>
      <trkpt lat="49.01088" lon="2.05255">
        <ele>38</ele>
        <time>2021-10-11T16:35:04Z</time>
      </trkpt>
      <trkpt lat="49.01128" lon="2.05226">
        <ele>37</ele>
        <time>2021-10-11T16:36:03Z</time>
      </trkpt>
      <trkpt lat="49.01145" lon="2.05219">
        <ele>37</ele>
        <time>2021-10-11T16:36:27Z</time>
      </trkpt>
      <trkpt lat="49.01161" lon="2.05206">
        <ele>37</ele>
        <time>2021-10-11T16:36:51Z</time>
      </trkpt>
      <trkpt lat="49.01162" lon="2.05202">
        <ele>37</ele>
        <time>2021-10-11T16:36:55Z</time>
      </trkpt>
      <trkpt lat="49.01174" lon="2.05199">
        <ele>37</ele>
        <time>2021-10-11T16:37:11Z</time>
      </trkpt>
      <trkpt lat="49.01183" lon="2.05201">
        <ele>36</ele>
        <time>2021-10-11T16:37:23Z</time>
      </trkpt>
      <trkpt lat="49.01193" lon="2.05196">
        <ele>36</ele>
        <time>2021-10-11T16:37:37Z</time>
      </trkpt>
      <trkpt lat="49.01223" lon="2.05176">
        <ele>36</ele>
        <time>2021-10-11T16:38:21Z</time>
      </trkpt>
      <trkpt lat="49.01245" lon="2.05156">
        <ele>36</ele>
        <time>2021-10-11T16:38:55Z</time>
      </trkpt>
      <trkpt lat="49.01293" lon="2.05091">
        <ele>36</ele>
        <time>2021-10-11T16:40:21Z</time>
      </trkpt>
      <trkpt lat="49.01313" lon="2.05055">
        <ele>37</ele>
        <time>2021-10-11T16:41:02Z</time>
      </trkpt>
      <trkpt lat="49.01386" lon="2.04952">
        <ele>39</ele>
        <time>2021-10-11T16:43:15Z</time>
      </trkpt>
      <trkpt lat="49.01407" lon="2.04915">
        <ele>40</ele>
        <time>2021-10-11T16:43:58Z</time>
      </trkpt>
      <trkpt lat="49.01442" lon="2.04865">
        <ele>41</ele>
        <time>2021-10-11T16:45:02Z</time>
      </trkpt>
      <trkpt lat="49.01463" lon="2.04817">
        <ele>43</ele>
        <time>2021-10-11T16:45:52Z</time>
      </trkpt>
      <trkpt lat="49.01497" lon="2.04706">
        <ele>46</ele>
        <time>2021-10-11T16:47:39Z</time>
      </trkpt>
      <trkpt lat="49.01535" lon="2.04625">
        <ele>49</ele>
        <time>2021-10-11T16:49:06Z</time>
      </trkpt>
      <trkpt lat="49.01549" lon="2.04606">
        <ele>49</ele>
        <time>2021-10-11T16:49:32Z</time>
      </trkpt>
      <trkpt lat="49.01561" lon="2.04583">
        <ele>49</ele>
        <time>2021-10-11T16:49:57Z</time>
      </trkpt>
      <trkpt lat="49.01652" lon="2.04441">
        <ele>50</ele>
        <time>2021-10-11T16:52:51Z</time>
      </trkpt>
      <trkpt lat="49.01735" lon="2.04334">
        <ele>48</ele>
        <time>2021-10-11T16:55:16Z</time>
      </trkpt>
      <trkpt lat="49.01768" lon="2.04295">
        <ele>47</ele>
        <time>2021-10-11T16:56:12Z</time>
      </trkpt>
      <trkpt lat="49.01809" lon="2.0426">
        <ele>44</ele>
        <time>2021-10-11T16:57:14Z</time>
      </trkpt>
      <trkpt lat="49.0187" lon="2.04193">
        <ele>40</ele>
        <time>2021-10-11T16:58:55Z</time>
      </trkpt>
      <trkpt lat="49.01886" lon="2.04181">
        <ele>38</ele>
        <time>2021-10-11T16:59:19Z</time>
      </trkpt>
      <trkpt lat="49.01938" lon="2.04128">
        <ele>32</ele>
        <time>2021-10-11T17:00:42Z</time>
      </trkpt>
      <trkpt lat="49.01956" lon="2.04115">
        <ele>32</ele>
        <time>2021-10-11T17:01:09Z</time>
      </trkpt>
      <trkpt lat="49.02002" lon="2.04068">
        <ele>33</ele>
        <time>2021-10-11T17:02:22Z</time>
      </trkpt>
      <trkpt lat="49.0202" lon="2.04054">
        <ele>34</ele>
        <time>2021-10-11T17:02:49Z</time>
      </trkpt>
      <trkpt lat="49.02034" lon="2.04038">
        <ele>35</ele>
        <time>2021-10-11T17:03:13Z</time>
      </trkpt>
      <trkpt lat="49.02065" lon="2.0401">
        <ele>38</ele>
        <time>2021-10-11T17:04:01Z</time>
      </trkpt>
      <trkpt lat="49.0208" lon="2.0401">
        <ele>38</ele>
        <time>2021-10-11T17:04:21Z</time>
      </trkpt>
      <trkpt lat="49.02157" lon="2.03945">
        <ele>39</ele>
        <time>2021-10-11T17:06:18Z</time>
      </trkpt>
      <trkpt lat="49.02179" lon="2.0393">
        <ele>39</ele>
        <time>2021-10-11T17:06:51Z</time>
      </trkpt>
      <trkpt lat="49.02203" lon="2.03922">
        <ele>37</ele>
        <time>2021-10-11T17:07:23Z</time>
      </trkpt>
      <trkpt lat="49.02209" lon="2.03917">
        <ele>37</ele>
        <time>2021-10-11T17:07:32Z</time>
      </trkpt>
      <trkpt lat="49.02224" lon="2.03896">
        <ele>38</ele>
        <time>2021-10-11T17:08:00Z</time>
      </trkpt>
      <trkpt lat="49.02244" lon="2.03845">
        <ele>41</ele>
        <time>2021-10-11T17:08:52Z</time>
      </trkpt>
      <trkpt lat="49.02246" lon="2.03825">
        <ele>43</ele>
        <time>2021-10-11T17:09:09Z</time>
      </trkpt>
      <trkpt lat="49.02255" lon="2.03827">
        <ele>42</ele>
        <time>2021-10-11T17:09:21Z</time>
      </trkpt>
      <trkpt lat="49.02392" lon="2.0369">
        <ele>46</ele>
        <time>2021-10-11T17:13:00Z</time>
      </trkpt>
      <trkpt lat="49.02401" lon="2.03686">
        <ele>46</ele>
        <time>2021-10-11T17:13:13Z</time>
      </trkpt>
      <trkpt lat="49.02405" lon="2.03676">
        <ele>47</ele>
        <time>2021-10-11T17:13:23Z</time>
      </trkpt>
      <trkpt lat="49.02451" lon="2.03633">
        <ele>46</ele>
        <time>2021-10-11T17:14:35Z</time>
      </trkpt>
      <trkpt lat="49.02505" lon="2.03576">
        <ele>47</ele>
        <time>2021-10-11T17:16:02Z</time>
      </trkpt>
      <trkpt lat="49.02586" lon="2.03504">
        <ele>48</ele>
        <time>2021-10-11T17:18:08Z</time>
      </trkpt>
      <trkpt lat="49.02623" lon="2.03465">
        <ele>47</ele>
        <time>2021-10-11T17:19:08Z</time>
      </trkpt>
      <trkpt lat="49.02643" lon="2.03448">
        <ele>46</ele>
        <time>2021-10-11T17:19:38Z</time>
      </trkpt>
      <trkpt lat="49.02673" lon="2.03414">
        <ele>48</ele>
        <time>2021-10-11T17:20:28Z</time>
      </trkpt>
      <trkpt lat="49.02739" lon="2.03354">
        <ele>48</ele>
        <time>2021-10-11T17:22:11Z</time>
      </trkpt>
      <trkpt lat="49.02757" lon="2.03333">
        <ele>50</ele>
        <time>2021-10-11T17:22:41Z</time>
      </trkpt>
      <trkpt lat="49.02768" lon="2.03325">
        <ele>50</ele>
        <time>2021-10-11T17:22:57Z</time>
      </trkpt>
      <trkpt lat="49.02796" lon="2.03296">
        <ele>51</ele>
        <time>2021-10-11T17:23:42Z</time>
      </trkpt>
      <trkpt lat="49.02943" lon="2.03229">
        <ele>50</ele>
        <time>2021-10-11T17:27:07Z</time>
      </trkpt>
      <trkpt lat="49.03012" lon="2.03216">
        <ele>49</ele>
        <time>2021-10-11T17:28:40Z</time>
      </trkpt>
      <trkpt lat="49.03037" lon="2.03214">
        <ele>48</ele>
        <time>2021-10-11T17:29:13Z</time>
      </trkpt>
      <trkpt lat="49.03062" lon="2.03208">
        <ele>48</ele>
        <time>2021-10-11T17:29:47Z</time>
      </trkpt>
      <trkpt lat="49.03077" lon="2.032">
        <ele>48</ele>
        <time>2021-10-11T17:30:08Z</time>
      </trkpt>
      <trkpt lat="49.03095" lon="2.03194">
        <ele>48</ele>
        <time>2021-10-11T17:30:33Z</time>
      </trkpt>
      <trkpt lat="49.03137" lon="2.03187">
        <ele>49</ele>
        <time>2021-10-11T17:31:29Z</time>
      </trkpt>
      <trkpt lat="49.03141" lon="2.03183">
        <ele>50</ele>
        <time>2021-10-11T17:31:35Z</time>
      </trkpt>
      <trkpt lat="49.03158" lon="2.0319">
        <ele>49</ele>
        <time>2021-10-11T17:31:59Z</time>
      </trkpt>
      <trkpt lat="49.0317" lon="2.03192">
        <ele>49</ele>
        <time>2021-10-11T17:32:15Z</time>
      </trkpt>
      <trkpt lat="49.03174" lon="2.0319">
        <ele>49</ele>
        <time>2021-10-11T17:32:21Z</time>
      </trkpt>
      <trkpt lat="49.03188" lon="2.03192">
        <ele>49</ele>
        <time>2021-10-11T17:32:39Z</time>
      </trkpt>
      <trkpt lat="49.03197" lon="2.03188">
        <ele>50</ele>
        <time>2021-10-11T17:32:52Z</time>
      </trkpt>
      <trkpt lat="49.03223" lon="2.03195">
        <ele>49</ele>
        <time>2021-10-11T17:33:27Z</time>
      </trkpt>
      <trkpt lat="49.03228" lon="2.03192">
        <ele>49</ele>
        <time>2021-10-11T17:33:34Z</time>
      </trkpt>
      <trkpt lat="49.03325" lon="2.03176">
        <ele>52</ele>
        <time>2021-10-11T17:35:45Z</time>
      </trkpt>
      <trkpt lat="49.03354" lon="2.03167">
        <ele>51</ele>
        <time>2021-10-11T17:36:24Z</time>
      </trkpt>
      <trkpt lat="49.03374" lon="2.03165">
        <ele>50</ele>
        <time>2021-10-11T17:36:51Z</time>
      </trkpt>
      <trkpt lat="49.03396" lon="2.03158">
        <ele>49</ele>
        <time>2021-10-11T17:37:21Z</time>
      </trkpt>
      <trkpt lat="49.03401" lon="2.03153">
        <ele>49</ele>
        <time>2021-10-11T17:37:29Z</time>
      </trkpt>
      <trkpt lat="49.03407" lon="2.03151">
        <ele>49</ele>
        <time>2021-10-11T17:37:37Z</time>
      </trkpt>
      <trkpt lat="49.03421" lon="2.03137">
        <ele>48</ele>
        <time>2021-10-11T17:37:59Z</time>
      </trkpt>
      <trkpt lat="49.03442" lon="2.03138">
        <ele>46</ele>
        <time>2021-10-11T17:38:27Z</time>
      </trkpt>
      <trkpt lat="49.03463" lon="2.03134">
        <ele>44</ele>
        <time>2021-10-11T17:38:56Z</time>
      </trkpt>
      <trkpt lat="49.03469" lon="2.03135">
        <ele>44</ele>
        <time>2021-10-11T17:39:04Z</time>
      </trkpt>
      <trkpt lat="49.03502" lon="2.03063">
        <ele>45</ele>
        <time>2021-10-11T17:40:21Z</time>
      </trkpt>
      <trkpt lat="49.03504" lon="2.03048">
        <ele>45</ele>
        <time>2021-10-11T17:40:34Z</time>
      </trkpt>
      <trkpt lat="49.03512" lon="2.0304">
        <ele>45</ele>
        <time>2021-10-11T17:40:47Z</time>
      </trkpt>
      <trkpt lat="49.03516" lon="2.03014">
        <ele>46</ele>
        <time>2021-10-11T17:41:10Z</time>
      </trkpt>
      <trkpt lat="49.03516" lon="2.02994">
        <ele>46</ele>
        <time>2021-10-11T17:41:28Z</time>
      </trkpt>
      <trkpt lat="49.03512" lon="2.02968">
        <ele>47</ele>
        <time>2021-10-11T17:41:51Z</time>
      </trkpt>
      <trkpt lat="49.03517" lon="2.0295">
        <ele>46</ele>
        <time>2021-10-11T17:42:08Z</time>
      </trkpt>
      <trkpt lat="49.03526" lon="2.0294">
        <ele>45</ele>
        <time>2021-10-11T17:42:23Z</time>
      </trkpt>
      <trkpt lat="49.03528" lon="2.02933">
        <ele>45</ele>
        <time>2021-10-11T17:42:30Z</time>
      </trkpt>
      <trkpt lat="49.03533" lon="2.02941">
        <ele>45</ele>
        <time>2021-10-11T17:42:39Z</time>
      </trkpt>
      <trkpt lat="49.03537" lon="2.02942">
        <ele>44</ele>
        <time>2021-10-11T17:42:45Z</time>
      </trkpt>
      <trkpt lat="49.03575" lon="2.02941">
        <ele>41</ele>
        <time>2021-10-11T17:43:35Z</time>
      </trkpt>
      <trkpt lat="49.03595" lon="2.02948">
        <ele>42</ele>
        <time>2021-10-11T17:44:03Z</time>
      </trkpt>
      <trkpt lat="49.03602" lon="2.02955">
        <ele>43</ele>
        <time>2021-10-11T17:44:14Z</time>
      </trkpt>
      <trkpt lat="49.03622" lon="2.02963">
        <ele>46</ele>
        <time>2021-10-11T17:44:41Z</time>
      </trkpt>
      <trkpt lat="49.03646" lon="2.02995">
        <ele>48</ele>
        <time>2021-10-11T17:45:24Z</time>
      </trkpt>
      <trkpt lat="49.03653" lon="2.03017">
        <ele>49</ele>
        <time>2021-10-11T17:45:45Z</time>
      </trkpt>
      <trkpt lat="49.03664" lon="2.0304">
        <ele>50</ele>
        <time>2021-10-11T17:46:10Z</time>
      </trkpt>
      <trkpt lat="49.03675" lon="2.03084">
        <ele>51</ele>
        <time>2021-10-11T17:46:52Z</time>
      </trkpt>
      <trkpt lat="49.03682" lon="2.03141">
        <ele>53</ele>
        <time>2021-10-11T17:47:42Z</time>
      </trkpt>
      <trkpt lat="49.03688" lon="2.03165">
        <ele>54</ele>
        <time>2021-10-11T17:48:05Z</time>
      </trkpt>
      <trkpt lat="49.03688" lon="2.03198">
        <ele>54</ele>
        <time>2021-10-11T17:48:34Z</time>
      </trkpt>
      <trkpt lat="49.03697" lon="2.03265">
        <ele>54</ele>
        <time>2021-10-11T17:49:33Z</time>
      </trkpt>
      <trkpt lat="49.03703" lon="2.0329">
        <ele>53</ele>
        <time>2021-10-11T17:49:57Z</time>
      </trkpt>
      <trkpt lat="49.03713" lon="2.03321">
        <ele>53</ele>
        <time>2021-10-11T17:50:27Z</time>
      </trkpt>
      <trkpt lat="49.03728" lon="2.03354">
        <ele>54</ele>
        <time>2021-10-11T17:51:02Z</time>
      </trkpt>
      <trkpt lat="49.03756" lon="2.03402">
        <ele>54</ele>
        <time>2021-10-11T17:51:58Z</time>
      </trkpt>
      <trkpt lat="49.03786" lon="2.03433">
        <ele>55</ele>
        <time>2021-10-11T17:52:47Z</time>
      </trkpt>
      <trkpt lat="49.03823" lon="2.03463">
        <ele>57</ele>
        <time>2021-10-11T17:53:43Z</time>
      </trkpt>
      <trkpt lat="49.03864" lon="2.03492">
        <ele>60</ele>
        <time>2021-10-11T17:54:43Z</time>
      </trkpt>
      <trkpt lat="49.03876" lon="2.03498">
        <ele>61</ele>
        <time>2021-10-11T17:55:00Z</time>
      </trkpt>
      <trkpt lat="49.03893" lon="2.03512">
        <ele>62</ele>
        <time>2021-10-11T17:55:25Z</time>
      </trkpt>
      <trkpt lat="49.03923" lon="2.03544">
        <ele>62</ele>
        <time>2021-10-11T17:56:14Z</time>
      </trkpt>
      <trkpt lat="49.03927" lon="2.03551">
        <ele>62</ele>
        <time>2021-10-11T17:56:22Z</time>
      </trkpt>
      <trkpt lat="49.04006" lon="2.03631">
        <ele>66</ele>
        <time>2021-10-11T17:58:29Z</time>
      </trkpt>
      <trkpt lat="49.04034" lon="2.03665">
        <ele>66</ele>
        <time>2021-10-11T17:59:17Z</time>
      </trkpt>
      <trkpt lat="49.04035" lon="2.03675">
        <ele>65</ele>
        <time>2021-10-11T17:59:26Z</time>
      </trkpt>
      <trkpt lat="49.0403" lon="2.03686">
        <ele>63</ele>
        <time>2021-10-11T17:59:37Z</time>
      </trkpt>
      <trkpt lat="49.04049" lon="2.0369">
        <ele>66</ele>
        <time>2021-10-11T18:00:03Z</time>
      </trkpt>
      <trkpt lat="49.04055" lon="2.03695">
        <ele>67</ele>
        <time>2021-10-11T18:00:12Z</time>
      </trkpt>
      <trkpt lat="49.0409" lon="2.0374">
        <ele>67</ele>
        <time>2021-10-11T18:01:13Z</time>
      </trkpt>
      <trkpt lat="49.04123" lon="2.03789">
        <ele>68</ele>
        <time>2021-10-11T18:02:15Z</time>
      </trkpt>
      <trkpt lat="49.04133" lon="2.0381">
        <ele>68</ele>
        <time>2021-10-11T18:02:37Z</time>
      </trkpt>
      <trkpt lat="49.0416" lon="2.03851">
        <ele>69</ele>
        <time>2021-10-11T18:03:28Z</time>
      </trkpt>
      <trkpt lat="49.04161" lon="2.0386">
        <ele>69</ele>
        <time>2021-10-11T18:03:36Z</time>
      </trkpt>
      <trkpt lat="49.04178" lon="2.0384">
        <ele>74</ele>
        <time>2021-10-11T18:04:05Z</time>
      </trkpt>
      <trkpt lat="49.04179" lon="2.03835">
        <ele>75</ele>
        <time>2021-10-11T18:04:09Z</time>
      </trkpt>
      <trkpt lat="49.04195" lon="2.03818">
        <ele>79</ele>
        <time>2021-10-11T18:04:35Z</time>
      </trkpt>
      <trkpt lat="49.04207" lon="2.03799">
        <ele>82</ele>
        <time>2021-10-11T18:04:58Z</time>
      </trkpt>
      <trkpt lat="49.04224" lon="2.03784">
        <ele>85</ele>
        <time>2021-10-11T18:05:25Z</time>
      </trkpt>
      <trkpt lat="49.04218" lon="2.03799">
        <ele>83</ele>
        <time>2021-10-11T18:05:40Z</time>
      </trkpt>
      <trkpt lat="49.04215" lon="2.03793">
        <ele>83</ele>
        <time>2021-10-11T18:05:47Z</time>
      </trkpt>
      <trkpt lat="49.04239" lon="2.03763">
        <ele>87</ele>
        <time>2021-10-11T18:06:28Z</time>
      </trkpt>
      <trkpt lat="49.04264" lon="2.03735">
        <ele>90</ele>
        <time>2021-10-11T18:07:09Z</time>
      </trkpt>
      <trkpt lat="49.04268" lon="2.03736">
        <ele>90</ele>
        <time>2021-10-11T18:07:15Z</time>
      </trkpt>
      <trkpt lat="49.04271" lon="2.03734">
        <ele>90</ele>
        <time>2021-10-11T18:07:19Z</time>
      </trkpt>
      <trkpt lat="49.04271" lon="2.03727">
        <ele>90</ele>
        <time>2021-10-11T18:07:25Z</time>
      </trkpt>
      <trkpt lat="49.04268" lon="2.03726">
        <ele>90</ele>
        <time>2021-10-11T18:07:29Z</time>
      </trkpt>
      <trkpt lat="49.043" lon="2.03697">
        <ele>92</ele>
        <time>2021-10-11T18:08:19Z</time>
      </trkpt>
      <trkpt lat="49.04304" lon="2.03701">
        <ele>92</ele>
        <time>2021-10-11T18:08:25Z</time>
      </trkpt>
      <trkpt lat="49.04302" lon="2.03692">
        <ele>92</ele>
        <time>2021-10-11T18:08:34Z</time>
      </trkpt>
      <trkpt lat="49.04453" lon="2.03523">
        <ele>102</ele>
        <time>2021-10-11T18:12:44Z</time>
      </trkpt>
      <trkpt lat="49.0446" lon="2.03513">
        <ele>102</ele>
        <time>2021-10-11T18:12:56Z</time>
      </trkpt>
      <trkpt lat="49.0446" lon="2.03504">
        <ele>102</ele>
        <time>2021-10-11T18:13:04Z</time>
      </trkpt>
      <trkpt lat="49.04468" lon="2.03502">
        <ele>102</ele>
        <time>2021-10-11T18:13:15Z</time>
      </trkpt>
      <trkpt lat="49.04503" lon="2.03461">
        <ele>105</ele>
        <time>2021-10-11T18:14:14Z</time>
      </trkpt>
      <trkpt lat="49.04547" lon="2.03417">
        <ele>108</ele>
        <time>2021-10-11T18:15:24Z</time>
      </trkpt>
      <trkpt lat="49.04554" lon="2.03404">
        <ele>108</ele>
        <time>2021-10-11T18:15:39Z</time>
      </trkpt>
      <trkpt lat="49.04591" lon="2.03367">
        <ele>107</ele>
        <time>2021-10-11T18:16:38Z</time>
      </trkpt>
      <trkpt lat="49.04607" lon="2.0336">
        <ele>107</ele>
        <time>2021-10-11T18:17:00Z</time>
      </trkpt>
      <trkpt lat="49.04629" lon="2.03357">
        <ele>106</ele>
        <time>2021-10-11T18:17:30Z</time>
      </trkpt>
      <trkpt lat="49.0466" lon="2.03367">
        <ele>104</ele>
        <time>2021-10-11T18:18:12Z</time>
      </trkpt>
      <trkpt lat="49.04699" lon="2.03372">
        <ele>103</ele>
        <time>2021-10-11T18:19:04Z</time>
      </trkpt>
      <trkpt lat="49.04723" lon="2.03381">
        <ele>103</ele>
        <time>2021-10-11T18:19:37Z</time>
      </trkpt>
      <trkpt lat="49.04744" lon="2.03382">
        <ele>103</ele>
        <time>2021-10-11T18:20:05Z</time>
      </trkpt>
      <trkpt lat="49.04776" lon="2.03395">
        <ele>101</ele>
        <time>2021-10-11T18:20:49Z</time>
      </trkpt>
      <trkpt lat="49.04782" lon="2.03394">
        <ele>101</ele>
        <time>2021-10-11T18:20:57Z</time>
      </trkpt>
      <trkpt lat="49.04854" lon="2.03409">
        <ele>98</ele>
        <time>2021-10-11T18:22:34Z</time>
      </trkpt>
      <trkpt lat="49.04865" lon="2.03409">
        <ele>98</ele>
        <time>2021-10-11T18:22:49Z</time>
      </trkpt>
      <trkpt lat="49.04916" lon="2.03429">
        <ele>97</ele>
        <time>2021-10-11T18:23:59Z</time>
      </trkpt>
      <trkpt lat="49.04948" lon="2.03415">
        <ele>97</ele>
        <time>2021-10-11T18:24:44Z</time>
      </trkpt>
    </trkseg>
  </trk>
</gpx>